<?xml version='1.0' encoding='UTF-8'?><gpx version="1.1" creator="JPX - https://github.com/jenetics/jpx" xmlns="http://www.topografix.com/GPX/1/1"><trk><trkseg><trkpt lat="43.6780819" lon="10.9429331"><ele>128.0</ele><time>2026-04-18T08:02:43.664Z</time></trkpt><trkpt lat="43.6780183" lon="10.9428892"><ele>127.99999999999999</ele><time>2026-04-18T08:02:49.665Z</time></trkpt><trkpt lat="43.6779519" lon="10.9428703"><ele>128.0</ele><time>2026-04-18T08:02:56.665Z</time></trkpt><trkpt lat="43.6778935" lon="10.9427992"><ele>128.0</ele><time>2026-04-18T08:03:02.679Z</time></trkpt><trkpt lat="43.6778394" lon="10.9427276"><ele>127.99999999999999</ele><time>2026-04-18T08:03:09.664Z</time></trkpt><trkpt lat="43.6777763" lon="10.9426769"><ele>128.0</ele><time>2026-04-18T08:03:15.615Z</time></trkpt><trkpt lat="43.6777163" lon="10.9426184"><ele>128.0</ele><time>2026-04-18T08:03:20.655Z</time></trkpt><trkpt lat="43.6776869" lon="10.9425404"><ele>129.0</ele><time>2026-04-18T08:03:26.681Z</time></trkpt><trkpt lat="43.6776379" lon="10.9424752"><ele>130.0</ele><time>2026-04-18T08:03:32.764Z</time></trkpt><trkpt lat="43.6776237" lon="10.9423867"><ele>131.0</ele><time>2026-04-18T08:03:40.665Z</time></trkpt><trkpt lat="43.6775736" lon="10.9423066"><ele>132.0</ele><time>2026-04-18T08:03:45.665Z</time></trkpt><trkpt lat="43.6775138" lon="10.942241"><ele>133.0</ele><time>2026-04-18T08:03:51.664Z</time></trkpt><trkpt lat="43.6774613" lon="10.9421833"><ele>134.0</ele><time>2026-04-18T08:03:56.683Z</time></trkpt><trkpt lat="43.6774041" lon="10.9421306"><ele>135.0</ele><time>2026-04-18T08:04:01.664Z</time></trkpt><trkpt lat="43.6773615" lon="10.9420596"><ele>135.0</ele><time>2026-04-18T08:04:07.677Z</time></trkpt><trkpt lat="43.6772961" lon="10.9420306"><ele>135.0</ele><time>2026-04-18T08:04:12.59Z</time></trkpt><trkpt lat="43.6772366" lon="10.9419707"><ele>135.0</ele><time>2026-04-18T08:04:19.664Z</time></trkpt><trkpt lat="43.6771765" lon="10.9419248"><ele>135.0</ele><time>2026-04-18T08:04:24.728Z</time></trkpt><trkpt lat="43.6771278" lon="10.9418684"><ele>135.0</ele><time>2026-04-18T08:04:32.678Z</time></trkpt><trkpt lat="43.6771467" lon="10.9417775"><ele>135.0</ele><time>2026-04-18T08:04:36.57Z</time></trkpt><trkpt lat="43.6771946" lon="10.9417061"><ele>135.0</ele><time>2026-04-18T08:04:41.577Z</time></trkpt><trkpt lat="43.6772309" lon="10.9416294"><ele>135.14285714285714</ele><time>2026-04-18T08:04:47.664Z</time></trkpt><trkpt lat="43.6772034" lon="10.9415397"><ele>135.28571428571428</ele><time>2026-04-18T08:04:52.665Z</time></trkpt><trkpt lat="43.6771739" lon="10.9414614"><ele>135.42857142857142</ele><time>2026-04-18T08:04:56.775Z</time></trkpt><trkpt lat="43.6771434" lon="10.9413665"><ele>135.57142857142856</ele><time>2026-04-18T08:05:02.675Z</time></trkpt><trkpt lat="43.6770724" lon="10.9413328"><ele>135.71428571428572</ele><time>2026-04-18T08:05:07.714Z</time></trkpt><trkpt lat="43.6769991" lon="10.9413635"><ele>135.85714285714283</ele><time>2026-04-18T08:05:12.747Z</time></trkpt><trkpt lat="43.6769512" lon="10.9414321"><ele>136.0</ele><time>2026-04-18T08:05:18.752Z</time></trkpt><trkpt lat="43.6768815" lon="10.9414882"><ele>134.28571428571428</ele><time>2026-04-18T08:05:23.664Z</time></trkpt><trkpt lat="43.6768356" lon="10.9415755"><ele>132.57142857142856</ele><time>2026-04-18T08:05:29.665Z</time></trkpt><trkpt lat="43.6768004" lon="10.9416508"><ele>130.85714285714286</ele><time>2026-04-18T08:05:36.75Z</time></trkpt><trkpt lat="43.6767661" lon="10.9417244"><ele>129.14285714285714</ele><time>2026-04-18T08:05:41.664Z</time></trkpt><trkpt lat="43.6767099" lon="10.9417929"><ele>127.42857142857144</ele><time>2026-04-18T08:05:46.665Z</time></trkpt><trkpt lat="43.6766498" lon="10.9418475"><ele>125.71428571428572</ele><time>2026-04-18T08:05:52.664Z</time></trkpt><trkpt lat="43.6766087" lon="10.941938"><ele>124.0</ele><time>2026-04-18T08:05:57.581Z</time></trkpt><trkpt lat="43.6765693" lon="10.9420113"><ele>123.71428571428572</ele><time>2026-04-18T08:06:02.664Z</time></trkpt><trkpt lat="43.6765272" lon="10.9420804"><ele>123.42857142857144</ele><time>2026-04-18T08:06:07.664Z</time></trkpt><trkpt lat="43.6764709" lon="10.9421254"><ele>123.14285714285714</ele><time>2026-04-18T08:06:12.664Z</time></trkpt><trkpt lat="43.6764239" lon="10.9421878"><ele>122.85714285714286</ele><time>2026-04-18T08:06:17.69Z</time></trkpt><trkpt lat="43.6763517" lon="10.9422315"><ele>122.57142857142857</ele><time>2026-04-18T08:06:26.664Z</time></trkpt><trkpt lat="43.6762967" lon="10.9422959"><ele>122.28571428571428</ele><time>2026-04-18T08:06:31.665Z</time></trkpt><trkpt lat="43.6762586" lon="10.9423796"><ele>121.99999999999999</ele><time>2026-04-18T08:06:36.664Z</time></trkpt><trkpt lat="43.6762285" lon="10.9424668"><ele>120.85714285714283</ele><time>2026-04-18T08:06:41.649Z</time></trkpt><trkpt lat="43.6762014" lon="10.9425505"><ele>119.71428571428571</ele><time>2026-04-18T08:06:46.664Z</time></trkpt><trkpt lat="43.6761761" lon="10.9426343"><ele>118.57142857142856</ele><time>2026-04-18T08:06:51.664Z</time></trkpt><trkpt lat="43.6761489" lon="10.9427293"><ele>117.42857142857142</ele><time>2026-04-18T08:06:57.664Z</time></trkpt><trkpt lat="43.6761227" lon="10.9428122"><ele>116.28571428571428</ele><time>2026-04-18T08:07:03.315Z</time></trkpt><trkpt lat="43.6760813" lon="10.9428957"><ele>115.14285714285714</ele><time>2026-04-18T08:07:08.631Z</time></trkpt><trkpt lat="43.6760367" lon="10.9429655"><ele>114.0</ele><time>2026-04-18T08:07:13.869Z</time></trkpt><trkpt lat="43.6759819" lon="10.9430268"><ele>114.0</ele><time>2026-04-18T08:07:20.275Z</time></trkpt><trkpt lat="43.6759271" lon="10.943089"><ele>113.99999999999999</ele><time>2026-04-18T08:07:26.664Z</time></trkpt><trkpt lat="43.6758599" lon="10.943115"><ele>114.0</ele><time>2026-04-18T08:07:32.664Z</time></trkpt><trkpt lat="43.6757977" lon="10.9431313"><ele>114.0</ele><time>2026-04-18T08:07:37.664Z</time></trkpt><trkpt lat="43.6757283" lon="10.9431129"><ele>113.99999999999999</ele><time>2026-04-18T08:07:43.349Z</time></trkpt><trkpt lat="43.6756673" lon="10.9431447"><ele>114.0</ele><time>2026-04-18T08:07:48.755Z</time></trkpt><trkpt lat="43.6756044" lon="10.9431376"><ele>114.0</ele><time>2026-04-18T08:07:53.662Z</time></trkpt><trkpt lat="43.6755317" lon="10.9431205"><ele>114.0</ele><time>2026-04-18T08:07:58.751Z</time></trkpt><trkpt lat="43.6754617" lon="10.9431143"><ele>113.99999999999999</ele><time>2026-04-18T08:08:04.662Z</time></trkpt><trkpt lat="43.6753956" lon="10.943148"><ele>114.0</ele><time>2026-04-18T08:08:09.61Z</time></trkpt><trkpt lat="43.6753291" lon="10.9431875"><ele>114.0</ele><time>2026-04-18T08:08:16.141Z</time></trkpt><trkpt lat="43.6752645" lon="10.9432247"><ele>113.99999999999999</ele><time>2026-04-18T08:08:21.614Z</time></trkpt><trkpt lat="43.6752334" lon="10.9433086"><ele>114.0</ele><time>2026-04-18T08:08:27.662Z</time></trkpt><trkpt lat="43.6751716" lon="10.9432899"><ele>114.0</ele><time>2026-04-18T08:08:59.663Z</time></trkpt><trkpt lat="43.675108" lon="10.9433266"><ele>113.71428571428571</ele><time>2026-04-18T08:09:04.663Z</time></trkpt><trkpt lat="43.675057" lon="10.9434165"><ele>113.42857142857142</ele><time>2026-04-18T08:09:11.756Z</time></trkpt><trkpt lat="43.6750232" lon="10.9435021"><ele>113.14285714285714</ele><time>2026-04-18T08:09:17.662Z</time></trkpt><trkpt lat="43.6750078" lon="10.9435877"><ele>112.85714285714286</ele><time>2026-04-18T08:09:24.662Z</time></trkpt><trkpt lat="43.6749792" lon="10.9436724"><ele>112.57142857142857</ele><time>2026-04-18T08:09:29.662Z</time></trkpt><trkpt lat="43.6749632" lon="10.9437638"><ele>112.28571428571428</ele><time>2026-04-18T08:09:35.662Z</time></trkpt><trkpt lat="43.6749631" lon="10.9438559"><ele>112.0</ele><time>2026-04-18T08:09:41.663Z</time></trkpt><trkpt lat="43.6749435" lon="10.9439548"><ele>112.0</ele><time>2026-04-18T08:09:47.661Z</time></trkpt><trkpt lat="43.6749176" lon="10.9440394"><ele>112.0</ele><time>2026-04-18T08:09:53.578Z</time></trkpt><trkpt lat="43.6749117" lon="10.9441419"><ele>112.0</ele><time>2026-04-18T08:09:58.662Z</time></trkpt><trkpt lat="43.6748894" lon="10.9442361"><ele>112.0</ele><time>2026-04-18T08:10:04.662Z</time></trkpt><trkpt lat="43.674852" lon="10.9443296"><ele>112.0</ele><time>2026-04-18T08:10:10.662Z</time></trkpt><trkpt lat="43.6748432" lon="10.9444303"><ele>112.0</ele><time>2026-04-18T08:10:15.663Z</time></trkpt><trkpt lat="43.6748253" lon="10.9445217"><ele>112.0</ele><time>2026-04-18T08:10:20.663Z</time></trkpt><trkpt lat="43.6747991" lon="10.9446145"><ele>111.71428571428571</ele><time>2026-04-18T08:10:25.662Z</time></trkpt><trkpt lat="43.6747841" lon="10.9447056"><ele>111.42857142857143</ele><time>2026-04-18T08:10:30.657Z</time></trkpt><trkpt lat="43.6747847" lon="10.9448018"><ele>111.14285714285714</ele><time>2026-04-18T08:10:35.663Z</time></trkpt><trkpt lat="43.6747791" lon="10.9448918"><ele>110.85714285714286</ele><time>2026-04-18T08:10:40.621Z</time></trkpt><trkpt lat="43.6747689" lon="10.9449818"><ele>110.57142857142857</ele><time>2026-04-18T08:10:45.662Z</time></trkpt><trkpt lat="43.6747534" lon="10.9450665"><ele>110.28571428571428</ele><time>2026-04-18T08:10:50.662Z</time></trkpt><trkpt lat="43.6747236" lon="10.9451554"><ele>110.0</ele><time>2026-04-18T08:10:56.274Z</time></trkpt><trkpt lat="43.6747004" lon="10.9452368"><ele>109.28571428571428</ele><time>2026-04-18T08:11:01.662Z</time></trkpt><trkpt lat="43.6746697" lon="10.945314"><ele>108.57142857142857</ele><time>2026-04-18T08:11:06.662Z</time></trkpt><trkpt lat="43.6746192" lon="10.9453681"><ele>107.85714285714286</ele><time>2026-04-18T08:11:11.663Z</time></trkpt><trkpt lat="43.6745563" lon="10.9454184"><ele>107.14285714285714</ele><time>2026-04-18T08:11:17.681Z</time></trkpt><trkpt lat="43.6744969" lon="10.9454863"><ele>106.42857142857143</ele><time>2026-04-18T08:11:23.744Z</time></trkpt><trkpt lat="43.6744552" lon="10.9455574"><ele>105.71428571428571</ele><time>2026-04-18T08:11:28.662Z</time></trkpt><trkpt lat="43.6744132" lon="10.9456269"><ele>105.0</ele><time>2026-04-18T08:11:34.662Z</time></trkpt><trkpt lat="43.6743673" lon="10.945691"><ele>105.0</ele><time>2026-04-18T08:11:39.662Z</time></trkpt><trkpt lat="43.674327" lon="10.9457601"><ele>105.0</ele><time>2026-04-18T08:11:44.72Z</time></trkpt><trkpt lat="43.6742818" lon="10.9458405"><ele>105.0</ele><time>2026-04-18T08:11:50.752Z</time></trkpt><trkpt lat="43.6742543" lon="10.9459191"><ele>105.0</ele><time>2026-04-18T08:11:56.662Z</time></trkpt><trkpt lat="43.6742187" lon="10.9460032"><ele>105.0</ele><time>2026-04-18T08:12:02.261Z</time></trkpt><trkpt lat="43.6741703" lon="10.946072"><ele>105.0</ele><time>2026-04-18T08:12:07.747Z</time></trkpt><trkpt lat="43.6741283" lon="10.9461583"><ele>105.0</ele><time>2026-04-18T08:12:13.829Z</time></trkpt><trkpt lat="43.6740739" lon="10.9462298"><ele>105.0</ele><time>2026-04-18T08:12:19.524Z</time></trkpt><trkpt lat="43.6740188" lon="10.9463017"><ele>105.0</ele><time>2026-04-18T08:12:25.684Z</time></trkpt><trkpt lat="43.6739743" lon="10.9463693"><ele>105.0</ele><time>2026-04-18T08:12:30.743Z</time></trkpt><trkpt lat="43.6739228" lon="10.9464297"><ele>105.0</ele><time>2026-04-18T08:12:36.577Z</time></trkpt><trkpt lat="43.6738749" lon="10.9464958"><ele>105.0</ele><time>2026-04-18T08:12:42.662Z</time></trkpt><trkpt lat="43.6738104" lon="10.9465389"><ele>105.0</ele><time>2026-04-18T08:12:49.865Z</time></trkpt><trkpt lat="43.6737502" lon="10.9466027"><ele>105.0</ele><time>2026-04-18T08:12:55.181Z</time></trkpt><trkpt lat="43.6737068" lon="10.9466764"><ele>105.0</ele><time>2026-04-18T08:12:59.488Z</time></trkpt><trkpt lat="43.6736756" lon="10.9467676"><ele>105.0</ele><time>2026-04-18T08:13:04.662Z</time></trkpt><trkpt lat="43.6736336" lon="10.9468343"><ele>105.0</ele><time>2026-04-18T08:13:09.748Z</time></trkpt><trkpt lat="43.6735722" lon="10.9468835"><ele>105.0</ele><time>2026-04-18T08:13:14.71Z</time></trkpt><trkpt lat="43.6735032" lon="10.9469182"><ele>105.0</ele><time>2026-04-18T08:13:20.68Z</time></trkpt><trkpt lat="43.6734383" lon="10.9469407"><ele>105.0</ele><time>2026-04-18T08:13:26.085Z</time></trkpt><trkpt lat="43.6733699" lon="10.9469635"><ele>105.0</ele><time>2026-04-18T08:13:31.752Z</time></trkpt><trkpt lat="43.6732986" lon="10.9469784"><ele>106.42857142857143</ele><time>2026-04-18T08:13:37.631Z</time></trkpt><trkpt lat="43.6732273" lon="10.946973"><ele>107.85714285714286</ele><time>2026-04-18T08:13:43.025Z</time></trkpt><trkpt lat="43.6731581" lon="10.9469599"><ele>109.28571428571428</ele><time>2026-04-18T08:13:48.383Z</time></trkpt><trkpt lat="43.6730841" lon="10.9469469"><ele>110.71428571428571</ele><time>2026-04-18T08:13:54.662Z</time></trkpt><trkpt lat="43.6730158" lon="10.9469294"><ele>112.14285714285714</ele><time>2026-04-18T08:13:59.722Z</time></trkpt><trkpt lat="43.672954" lon="10.9468956"><ele>113.57142857142856</ele><time>2026-04-18T08:14:04.662Z</time></trkpt><trkpt lat="43.6728903" lon="10.9468851"><ele>114.99999999999999</ele><time>2026-04-18T08:14:09.663Z</time></trkpt><trkpt lat="43.6728217" lon="10.9468772"><ele>115.99999999999999</ele><time>2026-04-18T08:14:14.73Z</time></trkpt><trkpt lat="43.6727517" lon="10.946865"><ele>117.0</ele><time>2026-04-18T08:14:20.268Z</time></trkpt><trkpt lat="43.6726876" lon="10.9468417"><ele>117.99999999999999</ele><time>2026-04-18T08:14:25.663Z</time></trkpt><trkpt lat="43.6726246" lon="10.9468278"><ele>118.99999999999999</ele><time>2026-04-18T08:14:30.805Z</time></trkpt><trkpt lat="43.6725609" lon="10.9468191"><ele>120.0</ele><time>2026-04-18T08:14:36.048Z</time></trkpt><trkpt lat="43.6724917" lon="10.9467951"><ele>120.99999999999999</ele><time>2026-04-18T08:14:41.345Z</time></trkpt><trkpt lat="43.6724234" lon="10.9467745"><ele>121.99999999999999</ele><time>2026-04-18T08:14:46.727Z</time></trkpt><trkpt lat="43.6723498" lon="10.9467606"><ele>121.99999999999999</ele><time>2026-04-18T08:14:52.755Z</time></trkpt><trkpt lat="43.6722793" lon="10.9467315"><ele>122.0</ele><time>2026-04-18T08:14:58.663Z</time></trkpt><trkpt lat="43.6722071" lon="10.9467136"><ele>121.99999999999999</ele><time>2026-04-18T08:15:04.677Z</time></trkpt><trkpt lat="43.6721438" lon="10.9466988"><ele>121.99999999999999</ele><time>2026-04-18T08:15:09.625Z</time></trkpt><trkpt lat="43.6720798" lon="10.9466758"><ele>122.0</ele><time>2026-04-18T08:15:14.662Z</time></trkpt><trkpt lat="43.6720084" lon="10.9466524"><ele>121.99999999999999</ele><time>2026-04-18T08:15:20.662Z</time></trkpt><trkpt lat="43.6719442" lon="10.9466384"><ele>121.99999999999999</ele><time>2026-04-18T08:15:25.747Z</time></trkpt><trkpt lat="43.6718771" lon="10.9466438"><ele>121.28571428571428</ele><time>2026-04-18T08:15:30.682Z</time></trkpt><trkpt lat="43.6718169" lon="10.9466154"><ele>120.57142857142857</ele><time>2026-04-18T08:15:35.663Z</time></trkpt><trkpt lat="43.6717473" lon="10.9465815"><ele>119.85714285714286</ele><time>2026-04-18T08:15:41.752Z</time></trkpt><trkpt lat="43.6716777" lon="10.9465567"><ele>119.14285714285714</ele><time>2026-04-18T08:15:47.662Z</time></trkpt><trkpt lat="43.6716186" lon="10.946516"><ele>118.42857142857144</ele><time>2026-04-18T08:15:52.674Z</time></trkpt><trkpt lat="43.6715676" lon="10.9464542"><ele>117.71428571428572</ele><time>2026-04-18T08:15:58.619Z</time></trkpt><trkpt lat="43.6715521" lon="10.9463602"><ele>117.0</ele><time>2026-04-18T08:16:03.751Z</time></trkpt><trkpt lat="43.6715056" lon="10.9462932"><ele>117.0</ele><time>2026-04-18T08:16:09.662Z</time></trkpt><trkpt lat="43.6714493" lon="10.946243"><ele>117.00000000000001</ele><time>2026-04-18T08:16:14.684Z</time></trkpt><trkpt lat="43.6713901" lon="10.9461975"><ele>117.0</ele><time>2026-04-18T08:16:19.771Z</time></trkpt><trkpt lat="43.6713327" lon="10.9461382"><ele>117.0</ele><time>2026-04-18T08:16:25.663Z</time></trkpt><trkpt lat="43.6712718" lon="10.9460905"><ele>117.00000000000001</ele><time>2026-04-18T08:16:31.663Z</time></trkpt><trkpt lat="43.6712145" lon="10.9460336"><ele>117.0</ele><time>2026-04-18T08:16:37.282Z</time></trkpt><trkpt lat="43.6711677" lon="10.945962"><ele>117.0</ele><time>2026-04-18T08:16:42.73Z</time></trkpt><trkpt lat="43.6710953" lon="10.9459329"><ele>117.57142857142858</ele><time>2026-04-18T08:16:48.662Z</time></trkpt><trkpt lat="43.671032" lon="10.9459095"><ele>118.14285714285715</ele><time>2026-04-18T08:16:53.662Z</time></trkpt><trkpt lat="43.6709613" lon="10.9458858"><ele>118.71428571428572</ele><time>2026-04-18T08:16:59.742Z</time></trkpt><trkpt lat="43.6709071" lon="10.945841"><ele>119.28571428571428</ele><time>2026-04-18T08:17:04.662Z</time></trkpt><trkpt lat="43.6708373" lon="10.9458211"><ele>119.85714285714285</ele><time>2026-04-18T08:17:10.696Z</time></trkpt><trkpt lat="43.6707652" lon="10.945815"><ele>120.42857142857142</ele><time>2026-04-18T08:17:16.75Z</time></trkpt><trkpt lat="43.6706936" lon="10.9458206"><ele>121.0</ele><time>2026-04-18T08:17:22.675Z</time></trkpt><trkpt lat="43.6706233" lon="10.9458303"><ele>121.0</ele><time>2026-04-18T08:17:28.663Z</time></trkpt><trkpt lat="43.6705544" lon="10.9458392"><ele>120.99999999999999</ele><time>2026-04-18T08:17:33.662Z</time></trkpt><trkpt lat="43.6704837" lon="10.9458342"><ele>121.0</ele><time>2026-04-18T08:17:39.663Z</time></trkpt><trkpt lat="43.6704127" lon="10.9458475"><ele>121.0</ele><time>2026-04-18T08:17:45.663Z</time></trkpt><trkpt lat="43.6703513" lon="10.9458812"><ele>120.99999999999999</ele><time>2026-04-18T08:17:51.674Z</time></trkpt><trkpt lat="43.6702773" lon="10.9458912"><ele>121.0</ele><time>2026-04-18T08:17:57.662Z</time></trkpt><trkpt lat="43.6702043" lon="10.945895"><ele>121.0</ele><time>2026-04-18T08:18:03.662Z</time></trkpt><trkpt lat="43.6701329" lon="10.9459174"><ele>121.42857142857142</ele><time>2026-04-18T08:18:09.816Z</time></trkpt><trkpt lat="43.6700545" lon="10.9459285"><ele>121.85714285714285</ele><time>2026-04-18T08:18:15.088Z</time></trkpt><trkpt lat="43.6699875" lon="10.9459184"><ele>122.28571428571428</ele><time>2026-04-18T08:18:20.662Z</time></trkpt><trkpt lat="43.6699248" lon="10.9459269"><ele>122.71428571428572</ele><time>2026-04-18T08:18:26.662Z</time></trkpt><trkpt lat="43.6699086" lon="10.9458369"><ele>123.14285714285715</ele><time>2026-04-18T08:18:34.672Z</time></trkpt><trkpt lat="43.6698374" lon="10.9458707"><ele>123.57142857142858</ele><time>2026-04-18T08:18:39.663Z</time></trkpt><trkpt lat="43.6697817" lon="10.9459313"><ele>124.0</ele><time>2026-04-18T08:18:45.662Z</time></trkpt><trkpt lat="43.6697111" lon="10.9459441"><ele>124.57142857142858</ele><time>2026-04-18T08:18:51.662Z</time></trkpt><trkpt lat="43.6696411" lon="10.9459632"><ele>125.14285714285715</ele><time>2026-04-18T08:18:57.664Z</time></trkpt><trkpt lat="43.6695667" lon="10.945976"><ele>125.71428571428572</ele><time>2026-04-18T08:19:03.663Z</time></trkpt><trkpt lat="43.6695035" lon="10.9459923"><ele>126.28571428571428</ele><time>2026-04-18T08:19:08.72Z</time></trkpt><trkpt lat="43.6694447" lon="10.9460255"><ele>126.85714285714285</ele><time>2026-04-18T08:19:13.663Z</time></trkpt><trkpt lat="43.6693725" lon="10.9460521"><ele>127.42857142857142</ele><time>2026-04-18T08:19:19.663Z</time></trkpt><trkpt lat="43.6693015" lon="10.9460861"><ele>128.0</ele><time>2026-04-18T08:19:25.599Z</time></trkpt><trkpt lat="43.6692379" lon="10.9461059"><ele>128.0</ele><time>2026-04-18T08:19:30.663Z</time></trkpt><trkpt lat="43.6691638" lon="10.9461208"><ele>127.99999999999999</ele><time>2026-04-18T08:19:36.634Z</time></trkpt><trkpt lat="43.6690907" lon="10.9461257"><ele>128.0</ele><time>2026-04-18T08:19:42.755Z</time></trkpt><trkpt lat="43.6690201" lon="10.9461366"><ele>128.0</ele><time>2026-04-18T08:19:47.662Z</time></trkpt><trkpt lat="43.6689562" lon="10.9461317"><ele>127.99999999999999</ele><time>2026-04-18T08:19:53.339Z</time></trkpt><trkpt lat="43.6688861" lon="10.9461485"><ele>128.0</ele><time>2026-04-18T08:19:58.695Z</time></trkpt><trkpt lat="43.6688197" lon="10.946154"><ele>128.0</ele><time>2026-04-18T08:20:03.662Z</time></trkpt><trkpt lat="43.6687576" lon="10.9461311"><ele>128.0</ele><time>2026-04-18T08:20:08.772Z</time></trkpt><trkpt lat="43.6686886" lon="10.9461058"><ele>127.99999999999999</ele><time>2026-04-18T08:20:14.755Z</time></trkpt><trkpt lat="43.6686283" lon="10.9460679"><ele>128.0</ele><time>2026-04-18T08:20:20.035Z</time></trkpt><trkpt lat="43.6685702" lon="10.9460128"><ele>128.0</ele><time>2026-04-18T08:20:25.612Z</time></trkpt><trkpt lat="43.6685044" lon="10.9459586"><ele>127.99999999999999</ele><time>2026-04-18T08:20:31.59Z</time></trkpt><trkpt lat="43.6684458" lon="10.9459223"><ele>128.0</ele><time>2026-04-18T08:20:36.828Z</time></trkpt><trkpt lat="43.6683872" lon="10.9458708"><ele>128.0</ele><time>2026-04-18T08:20:42.422Z</time></trkpt><trkpt lat="43.6683348" lon="10.9458158"><ele>127.0</ele><time>2026-04-18T08:20:47.73Z</time></trkpt><trkpt lat="43.6682639" lon="10.9457719"><ele>125.99999999999999</ele><time>2026-04-18T08:20:53.664Z</time></trkpt><trkpt lat="43.668211" lon="10.9457134"><ele>125.0</ele><time>2026-04-18T08:20:59.757Z</time></trkpt><trkpt lat="43.6681598" lon="10.9456468"><ele>124.0</ele><time>2026-04-18T08:21:05.663Z</time></trkpt><trkpt lat="43.668108" lon="10.9455882"><ele>122.99999999999999</ele><time>2026-04-18T08:21:11.654Z</time></trkpt><trkpt lat="43.6680503" lon="10.9455319"><ele>122.0</ele><time>2026-04-18T08:21:16.663Z</time></trkpt><trkpt lat="43.6679972" lon="10.9454808"><ele>121.0</ele><time>2026-04-18T08:21:21.662Z</time></trkpt><trkpt lat="43.6679386" lon="10.9454431"><ele>121.0</ele><time>2026-04-18T08:21:27.631Z</time></trkpt><trkpt lat="43.6678857" lon="10.9453919"><ele>120.99999999999999</ele><time>2026-04-18T08:21:33.758Z</time></trkpt><trkpt lat="43.6678239" lon="10.9453467"><ele>121.0</ele><time>2026-04-18T08:21:38.665Z</time></trkpt><trkpt lat="43.6677586" lon="10.9453158"><ele>121.0</ele><time>2026-04-18T08:21:44.664Z</time></trkpt><trkpt lat="43.6676856" lon="10.9453122"><ele>120.99999999999999</ele><time>2026-04-18T08:21:50.664Z</time></trkpt><trkpt lat="43.6676139" lon="10.9453153"><ele>121.0</ele><time>2026-04-18T08:21:56.664Z</time></trkpt><trkpt lat="43.6675449" lon="10.9453291"><ele>121.0</ele><time>2026-04-18T08:22:01.665Z</time></trkpt><trkpt lat="43.6674802" lon="10.9453453"><ele>120.28571428571428</ele><time>2026-04-18T08:22:06.755Z</time></trkpt><trkpt lat="43.6674115" lon="10.9453655"><ele>119.57142857142856</ele><time>2026-04-18T08:22:12.448Z</time></trkpt><trkpt lat="43.6673509" lon="10.9453943"><ele>118.85714285714286</ele><time>2026-04-18T08:22:17.665Z</time></trkpt><trkpt lat="43.6672905" lon="10.9454229"><ele>118.14285714285714</ele><time>2026-04-18T08:22:22.664Z</time></trkpt><trkpt lat="43.6672128" lon="10.945443"><ele>117.42857142857143</ele><time>2026-04-18T08:22:28.664Z</time></trkpt><trkpt lat="43.6671398" lon="10.9454659"><ele>116.71428571428572</ele><time>2026-04-18T08:22:34.664Z</time></trkpt><trkpt lat="43.6670658" lon="10.9454756"><ele>116.00000000000001</ele><time>2026-04-18T08:22:40.664Z</time></trkpt><trkpt lat="43.6670031" lon="10.9454841"><ele>116.14285714285717</ele><time>2026-04-18T08:22:45.688Z</time></trkpt><trkpt lat="43.6669304" lon="10.9454838"><ele>116.28571428571429</ele><time>2026-04-18T08:22:51.665Z</time></trkpt><trkpt lat="43.6668683" lon="10.9455085"><ele>116.42857142857144</ele><time>2026-04-18T08:22:56.664Z</time></trkpt><trkpt lat="43.666802" lon="10.9455337"><ele>116.57142857142858</ele><time>2026-04-18T08:23:01.71Z</time></trkpt><trkpt lat="43.6667288" lon="10.9455387"><ele>116.71428571428572</ele><time>2026-04-18T08:23:07.664Z</time></trkpt><trkpt lat="43.6666606" lon="10.9455618"><ele>116.85714285714286</ele><time>2026-04-18T08:23:12.664Z</time></trkpt><trkpt lat="43.6665899" lon="10.9455861"><ele>117.0</ele><time>2026-04-18T08:23:18.665Z</time></trkpt><trkpt lat="43.6665284" lon="10.9456111"><ele>117.0</ele><time>2026-04-18T08:23:23.777Z</time></trkpt><trkpt lat="43.666471" lon="10.9456519"><ele>117.00000000000001</ele><time>2026-04-18T08:23:29.054Z</time></trkpt><trkpt lat="43.6664013" lon="10.9456633"><ele>117.0</ele><time>2026-04-18T08:23:34.392Z</time></trkpt><trkpt lat="43.6663383" lon="10.9456834"><ele>117.0</ele><time>2026-04-18T08:23:39.72Z</time></trkpt><trkpt lat="43.6662694" lon="10.9457036"><ele>117.00000000000001</ele><time>2026-04-18T08:23:45.69Z</time></trkpt><trkpt lat="43.6661945" lon="10.9457058"><ele>117.0</ele><time>2026-04-18T08:23:51.664Z</time></trkpt><trkpt lat="43.6661318" lon="10.9457199"><ele>117.0</ele><time>2026-04-18T08:23:56.711Z</time></trkpt><trkpt lat="43.6660703" lon="10.9457502"><ele>117.14285714285715</ele><time>2026-04-18T08:24:01.665Z</time></trkpt><trkpt lat="43.6660074" lon="10.9457788"><ele>117.2857142857143</ele><time>2026-04-18T08:24:06.665Z</time></trkpt><trkpt lat="43.6659674" lon="10.945852"><ele>117.42857142857143</ele><time>2026-04-18T08:24:12.976Z</time></trkpt><trkpt lat="43.665904" lon="10.945918"><ele>117.57142857142858</ele><time>2026-04-18T08:24:19.014Z</time></trkpt><trkpt lat="43.6658459" lon="10.9459724"><ele>117.71428571428572</ele><time>2026-04-18T08:24:24.439Z</time></trkpt><trkpt lat="43.6657905" lon="10.9460347"><ele>117.85714285714286</ele><time>2026-04-18T08:24:30.664Z</time></trkpt><trkpt lat="43.6657301" lon="10.9460743"><ele>118.0</ele><time>2026-04-18T08:24:36.665Z</time></trkpt><trkpt lat="43.6656748" lon="10.9461204"><ele>116.57142857142857</ele><time>2026-04-18T08:24:41.76Z</time></trkpt><trkpt lat="43.6656201" lon="10.9461779"><ele>115.14285714285715</ele><time>2026-04-18T08:24:46.785Z</time></trkpt><trkpt lat="43.6655612" lon="10.9462097"><ele>113.71428571428572</ele><time>2026-04-18T08:24:51.664Z</time></trkpt><trkpt lat="43.6655094" lon="10.9462602"><ele>112.28571428571428</ele><time>2026-04-18T08:24:56.761Z</time></trkpt><trkpt lat="43.6654591" lon="10.9463241"><ele>110.85714285714286</ele><time>2026-04-18T08:25:02.666Z</time></trkpt><trkpt lat="43.6654004" lon="10.9463601"><ele>109.42857142857143</ele><time>2026-04-18T08:25:07.632Z</time></trkpt><trkpt lat="43.665339" lon="10.9464196"><ele>108.0</ele><time>2026-04-18T08:25:13.791Z</time></trkpt><trkpt lat="43.6652825" lon="10.946477"><ele>108.0</ele><time>2026-04-18T08:25:19.129Z</time></trkpt><trkpt lat="43.6652261" lon="10.9465217"><ele>108.0</ele><time>2026-04-18T08:25:24.664Z</time></trkpt><trkpt lat="43.6651554" lon="10.9465375"><ele>108.0</ele><time>2026-04-18T08:25:30.664Z</time></trkpt><trkpt lat="43.6651022" lon="10.9465938"><ele>108.0</ele><time>2026-04-18T08:25:35.664Z</time></trkpt><trkpt lat="43.6651698" lon="10.9465974"><ele>108.0</ele><time>2026-04-18T08:25:49.738Z</time></trkpt><trkpt lat="43.6652241" lon="10.9465419"><ele>108.0</ele><time>2026-04-18T08:25:55.665Z</time></trkpt><trkpt lat="43.6652897" lon="10.946491"><ele>108.0</ele><time>2026-04-18T08:26:00.666Z</time></trkpt><trkpt lat="43.6653412" lon="10.9464364"><ele>108.0</ele><time>2026-04-18T08:26:05.665Z</time></trkpt><trkpt lat="43.6654074" lon="10.9463876"><ele>108.0</ele><time>2026-04-18T08:26:11.665Z</time></trkpt><trkpt lat="43.6654615" lon="10.9463154"><ele>108.0</ele><time>2026-04-18T08:26:17.681Z</time></trkpt><trkpt lat="43.6655183" lon="10.9462479"><ele>108.0</ele><time>2026-04-18T08:26:23.699Z</time></trkpt><trkpt lat="43.6655728" lon="10.946194"><ele>108.0</ele><time>2026-04-18T08:26:28.668Z</time></trkpt><trkpt lat="43.6656255" lon="10.9461428"><ele>108.0</ele><time>2026-04-18T08:26:33.622Z</time></trkpt><trkpt lat="43.6656888" lon="10.9460917"><ele>108.0</ele><time>2026-04-18T08:26:39.665Z</time></trkpt><trkpt lat="43.6657508" lon="10.9460441"><ele>108.0</ele><time>2026-04-18T08:26:45.599Z</time></trkpt><trkpt lat="43.6658121" lon="10.9459855"><ele>108.0</ele><time>2026-04-18T08:26:51.776Z</time></trkpt><trkpt lat="43.6658667" lon="10.9459419"><ele>108.0</ele><time>2026-04-18T08:26:56.668Z</time></trkpt><trkpt lat="43.6659268" lon="10.9458814"><ele>108.0</ele><time>2026-04-18T08:27:02.665Z</time></trkpt><trkpt lat="43.6659802" lon="10.9458168"><ele>108.0</ele><time>2026-04-18T08:27:08.665Z</time></trkpt><trkpt lat="43.6660402" lon="10.9457544"><ele>108.0</ele><time>2026-04-18T08:27:14.664Z</time></trkpt><trkpt lat="43.6661017" lon="10.945703"><ele>108.0</ele><time>2026-04-18T08:27:20.665Z</time></trkpt><trkpt lat="43.6661655" lon="10.9456996"><ele>109.28571428571428</ele><time>2026-04-18T08:27:25.664Z</time></trkpt><trkpt lat="43.6662413" lon="10.9456925"><ele>110.57142857142857</ele><time>2026-04-18T08:27:31.778Z</time></trkpt><trkpt lat="43.666311" lon="10.945678"><ele>111.85714285714286</ele><time>2026-04-18T08:27:37.546Z</time></trkpt><trkpt lat="43.6663743" lon="10.9456614"><ele>113.14285714285714</ele><time>2026-04-18T08:27:42.851Z</time></trkpt><trkpt lat="43.6664411" lon="10.94563"><ele>114.42857142857144</ele><time>2026-04-18T08:27:48.665Z</time></trkpt><trkpt lat="43.6665045" lon="10.9456119"><ele>115.71428571428572</ele><time>2026-04-18T08:27:53.773Z</time></trkpt><trkpt lat="43.666567" lon="10.945575"><ele>117.0</ele><time>2026-04-18T08:27:59.664Z</time></trkpt><trkpt lat="43.6666303" lon="10.9455973"><ele>117.0</ele><time>2026-04-18T08:28:05.664Z</time></trkpt><trkpt lat="43.6667007" lon="10.9456084"><ele>117.00000000000001</ele><time>2026-04-18T08:28:10.664Z</time></trkpt><trkpt lat="43.6667664" lon="10.9455955"><ele>117.0</ele><time>2026-04-18T08:28:15.689Z</time></trkpt><trkpt lat="43.6668351" lon="10.945577"><ele>117.0</ele><time>2026-04-18T08:28:20.664Z</time></trkpt><trkpt lat="43.666896" lon="10.9455505"><ele>117.00000000000001</ele><time>2026-04-18T08:28:26.665Z</time></trkpt><trkpt lat="43.6669603" lon="10.9455444"><ele>117.0</ele><time>2026-04-18T08:28:31.664Z</time></trkpt><trkpt lat="43.6670283" lon="10.9455231"><ele>117.0</ele><time>2026-04-18T08:28:37.664Z</time></trkpt><trkpt lat="43.6670985" lon="10.9454979"><ele>116.85714285714286</ele><time>2026-04-18T08:28:43.665Z</time></trkpt><trkpt lat="43.6671656" lon="10.9454953"><ele>116.71428571428572</ele><time>2026-04-18T08:28:49.665Z</time></trkpt><trkpt lat="43.6672277" lon="10.9454688"><ele>116.57142857142858</ele><time>2026-04-18T08:28:54.758Z</time></trkpt><trkpt lat="43.6672963" lon="10.9454566"><ele>116.42857142857144</ele><time>2026-04-18T08:29:00.769Z</time></trkpt><trkpt lat="43.6673602" lon="10.9454507"><ele>116.28571428571429</ele><time>2026-04-18T08:29:07.664Z</time></trkpt><trkpt lat="43.6674259" lon="10.9454476"><ele>116.14285714285717</ele><time>2026-04-18T08:29:13.692Z</time></trkpt><trkpt lat="43.6674873" lon="10.9454151"><ele>116.00000000000001</ele><time>2026-04-18T08:29:18.686Z</time></trkpt><trkpt lat="43.6675508" lon="10.9453644"><ele>116.00000000000001</ele><time>2026-04-18T08:29:24.224Z</time></trkpt><trkpt lat="43.6676205" lon="10.9453629"><ele>116.0</ele><time>2026-04-18T08:29:29.562Z</time></trkpt><trkpt lat="43.667665" lon="10.9452888"><ele>116.00000000000001</ele><time>2026-04-18T08:29:35.665Z</time></trkpt><trkpt lat="43.6677302" lon="10.9452827"><ele>116.00000000000001</ele><time>2026-04-18T08:29:40.665Z</time></trkpt><trkpt lat="43.6677993" lon="10.9452367"><ele>116.0</ele><time>2026-04-18T08:30:04.625Z</time></trkpt><trkpt lat="43.6677917" lon="10.945148"><ele>116.00000000000001</ele><time>2026-04-18T08:30:10.665Z</time></trkpt><trkpt lat="43.6677367" lon="10.9450859"><ele>116.00000000000001</ele><time>2026-04-18T08:30:17.666Z</time></trkpt><trkpt lat="43.6676936" lon="10.9450006"><ele>117.00000000000001</ele><time>2026-04-18T08:30:26.664Z</time></trkpt><trkpt lat="43.6676616" lon="10.9449122"><ele>118.0</ele><time>2026-04-18T08:30:31.67Z</time></trkpt><trkpt lat="43.6676004" lon="10.9448574"><ele>119.00000000000001</ele><time>2026-04-18T08:30:36.665Z</time></trkpt><trkpt lat="43.6675467" lon="10.9448019"><ele>120.00000000000001</ele><time>2026-04-18T08:30:41.643Z</time></trkpt><trkpt lat="43.6674929" lon="10.9447421"><ele>121.0</ele><time>2026-04-18T08:30:46.665Z</time></trkpt><trkpt lat="43.6674429" lon="10.9446733"><ele>122.00000000000001</ele><time>2026-04-18T08:30:52.665Z</time></trkpt><trkpt lat="43.6673962" lon="10.9446116"><ele>123.00000000000001</ele><time>2026-04-18T08:30:57.668Z</time></trkpt><trkpt lat="43.6673614" lon="10.9445259"><ele>123.00000000000001</ele><time>2026-04-18T08:31:02.665Z</time></trkpt><trkpt lat="43.6673442" lon="10.9444416"><ele>123.0</ele><time>2026-04-18T08:31:07.664Z</time></trkpt><trkpt lat="43.667346" lon="10.9443402"><ele>123.00000000000001</ele><time>2026-04-18T08:31:13.618Z</time></trkpt><trkpt lat="43.6673568" lon="10.9442488"><ele>123.00000000000001</ele><time>2026-04-18T08:31:18.665Z</time></trkpt><trkpt lat="43.6673588" lon="10.9441593"><ele>123.0</ele><time>2026-04-18T08:31:23.664Z</time></trkpt><trkpt lat="43.6673563" lon="10.9440718"><ele>123.00000000000001</ele><time>2026-04-18T08:31:28.664Z</time></trkpt><trkpt lat="43.6673451" lon="10.943982"><ele>123.00000000000001</ele><time>2026-04-18T08:31:33.665Z</time></trkpt><trkpt lat="43.6673277" lon="10.9438887"><ele>122.2857142857143</ele><time>2026-04-18T08:31:39.669Z</time></trkpt><trkpt lat="43.6673066" lon="10.9437926"><ele>121.57142857142858</ele><time>2026-04-18T08:31:45.647Z</time></trkpt><trkpt lat="43.6672897" lon="10.9436921"><ele>120.85714285714286</ele><time>2026-04-18T08:31:51.666Z</time></trkpt><trkpt lat="43.6672734" lon="10.9435934"><ele>120.14285714285715</ele><time>2026-04-18T08:31:57.665Z</time></trkpt><trkpt lat="43.6672601" lon="10.9435073"><ele>119.42857142857144</ele><time>2026-04-18T08:32:02.665Z</time></trkpt><trkpt lat="43.6672549" lon="10.9434164"><ele>118.71428571428571</ele><time>2026-04-18T08:32:07.689Z</time></trkpt><trkpt lat="43.6672569" lon="10.9433258"><ele>118.0</ele><time>2026-04-18T08:32:13.665Z</time></trkpt><trkpt lat="43.6672558" lon="10.9432205"><ele>117.14285714285714</ele><time>2026-04-18T08:32:19.686Z</time></trkpt><trkpt lat="43.6672561" lon="10.9431211"><ele>116.28571428571429</ele><time>2026-04-18T08:32:25.665Z</time></trkpt><trkpt lat="43.667252" lon="10.9430326"><ele>115.42857142857143</ele><time>2026-04-18T08:32:30.57Z</time></trkpt><trkpt lat="43.6672489" lon="10.942937"><ele>114.57142857142857</ele><time>2026-04-18T08:32:36.664Z</time></trkpt><trkpt lat="43.6672469" lon="10.9428357"><ele>113.71428571428572</ele><time>2026-04-18T08:32:42.676Z</time></trkpt><trkpt lat="43.6672381" lon="10.9427341"><ele>112.85714285714286</ele><time>2026-04-18T08:32:48.668Z</time></trkpt><trkpt lat="43.667236" lon="10.942643"><ele>112.0</ele><time>2026-04-18T08:32:54.675Z</time></trkpt><trkpt lat="43.6672454" lon="10.9425517"><ele>111.57142857142857</ele><time>2026-04-18T08:33:00.664Z</time></trkpt><trkpt lat="43.667256" lon="10.942465"><ele>111.14285714285714</ele><time>2026-04-18T08:33:05.664Z</time></trkpt><trkpt lat="43.6672684" lon="10.9423671"><ele>110.71428571428572</ele><time>2026-04-18T08:33:11.664Z</time></trkpt><trkpt lat="43.6672803" lon="10.9422774"><ele>110.28571428571428</ele><time>2026-04-18T08:33:16.667Z</time></trkpt><trkpt lat="43.6672896" lon="10.9421902"><ele>109.85714285714286</ele><time>2026-04-18T08:33:21.665Z</time></trkpt><trkpt lat="43.6673049" lon="10.9421052"><ele>109.42857142857143</ele><time>2026-04-18T08:33:26.664Z</time></trkpt><trkpt lat="43.6673351" lon="10.9420113"><ele>109.0</ele><time>2026-04-18T08:33:32.665Z</time></trkpt><trkpt lat="43.6673569" lon="10.9419114"><ele>109.0</ele><time>2026-04-18T08:33:38.665Z</time></trkpt><trkpt lat="43.6673843" lon="10.9418171"><ele>109.0</ele><time>2026-04-18T08:33:44.575Z</time></trkpt><trkpt lat="43.6674098" lon="10.9417351"><ele>109.0</ele><time>2026-04-18T08:33:49.664Z</time></trkpt><trkpt lat="43.6674341" lon="10.9416396"><ele>109.0</ele><time>2026-04-18T08:33:55.665Z</time></trkpt><trkpt lat="43.6674604" lon="10.9415582"><ele>109.0</ele><time>2026-04-18T08:34:00.671Z</time></trkpt><trkpt lat="43.6674824" lon="10.9414764"><ele>109.0</ele><time>2026-04-18T08:34:05.665Z</time></trkpt><trkpt lat="43.6675162" lon="10.9413878"><ele>109.0</ele><time>2026-04-18T08:34:11.666Z</time></trkpt><trkpt lat="43.667559" lon="10.9413049"><ele>108.71428571428572</ele><time>2026-04-18T08:34:17.621Z</time></trkpt><trkpt lat="43.6676032" lon="10.9412357"><ele>108.42857142857143</ele><time>2026-04-18T08:34:23.664Z</time></trkpt><trkpt lat="43.6676354" lon="10.9411472"><ele>108.14285714285714</ele><time>2026-04-18T08:34:29.619Z</time></trkpt><trkpt lat="43.6676711" lon="10.941061"><ele>107.85714285714286</ele><time>2026-04-18T08:34:35.609Z</time></trkpt><trkpt lat="43.6677359" lon="10.9410235"><ele>107.57142857142857</ele><time>2026-04-18T08:34:41.664Z</time></trkpt><trkpt lat="43.6677977" lon="10.9410032"><ele>107.28571428571429</ele><time>2026-04-18T08:34:46.706Z</time></trkpt><trkpt lat="43.6678734" lon="10.940973"><ele>107.0</ele><time>2026-04-18T08:34:52.665Z</time></trkpt><trkpt lat="43.6679442" lon="10.9409533"><ele>104.71428571428572</ele><time>2026-04-18T08:34:58.665Z</time></trkpt><trkpt lat="43.6680179" lon="10.9409418"><ele>102.42857142857143</ele><time>2026-04-18T08:35:04.629Z</time></trkpt><trkpt lat="43.6680913" lon="10.9409389"><ele>100.14285714285714</ele><time>2026-04-18T08:35:10.118Z</time></trkpt><trkpt lat="43.6681571" lon="10.9409349"><ele>97.85714285714286</ele><time>2026-04-18T08:35:15.564Z</time></trkpt><trkpt lat="43.6682211" lon="10.9409138"><ele>95.57142857142857</ele><time>2026-04-18T08:35:20.665Z</time></trkpt><trkpt lat="43.6682691" lon="10.9408484"><ele>93.28571428571429</ele><time>2026-04-18T08:35:25.665Z</time></trkpt><trkpt lat="43.6682806" lon="10.9407602"><ele>91.0</ele><time>2026-04-18T08:35:30.664Z</time></trkpt><trkpt lat="43.6682685" lon="10.9406717"><ele>91.0</ele><time>2026-04-18T08:35:35.666Z</time></trkpt><trkpt lat="43.6682478" lon="10.9405783"><ele>91.0</ele><time>2026-04-18T08:35:41.664Z</time></trkpt><trkpt lat="43.6682344" lon="10.9404877"><ele>91.0</ele><time>2026-04-18T08:35:46.665Z</time></trkpt><trkpt lat="43.6682168" lon="10.9403905"><ele>91.0</ele><time>2026-04-18T08:35:52.527Z</time></trkpt><trkpt lat="43.6681988" lon="10.9403039"><ele>91.0</ele><time>2026-04-18T08:35:57.664Z</time></trkpt><trkpt lat="43.6681844" lon="10.9402183"><ele>91.0</ele><time>2026-04-18T08:36:02.672Z</time></trkpt><trkpt lat="43.6681667" lon="10.9401215"><ele>91.0</ele><time>2026-04-18T08:36:08.664Z</time></trkpt><trkpt lat="43.6681493" lon="10.9400224"><ele>90.28571428571429</ele><time>2026-04-18T08:36:14.665Z</time></trkpt><trkpt lat="43.6681226" lon="10.9399288"><ele>89.57142857142857</ele><time>2026-04-18T08:36:20.664Z</time></trkpt><trkpt lat="43.6681008" lon="10.9398435"><ele>88.85714285714286</ele><time>2026-04-18T08:36:25.665Z</time></trkpt><trkpt lat="43.668083" lon="10.9397527"><ele>88.14285714285714</ele><time>2026-04-18T08:36:31.664Z</time></trkpt><trkpt lat="43.6680643" lon="10.9396542"><ele>87.42857142857143</ele><time>2026-04-18T08:36:37.57Z</time></trkpt><trkpt lat="43.6680429" lon="10.93956"><ele>86.71428571428572</ele><time>2026-04-18T08:36:43.629Z</time></trkpt><trkpt lat="43.6680255" lon="10.939466"><ele>86.0</ele><time>2026-04-18T08:37:04.665Z</time></trkpt><trkpt lat="43.6680103" lon="10.939376"><ele>86.00000000000001</ele><time>2026-04-18T08:37:09.688Z</time></trkpt><trkpt lat="43.6679897" lon="10.9392904"><ele>86.0</ele><time>2026-04-18T08:37:15.664Z</time></trkpt><trkpt lat="43.6679741" lon="10.9393885"><ele>86.0</ele><time>2026-04-18T08:37:27.665Z</time></trkpt><trkpt lat="43.6679959" lon="10.9394739"><ele>86.0</ele><time>2026-04-18T08:37:32.61Z</time></trkpt><trkpt lat="43.6680178" lon="10.939574"><ele>86.0</ele><time>2026-04-18T08:37:37.664Z</time></trkpt><trkpt lat="43.6680364" lon="10.9396742"><ele>86.00000000000001</ele><time>2026-04-18T08:37:42.665Z</time></trkpt><trkpt lat="43.6680578" lon="10.9397631"><ele>86.0</ele><time>2026-04-18T08:37:47.665Z</time></trkpt><trkpt lat="43.6680779" lon="10.9398542"><ele>86.00000000000001</ele><time>2026-04-18T08:37:52.665Z</time></trkpt><trkpt lat="43.6681047" lon="10.9399355"><ele>86.0</ele><time>2026-04-18T08:37:57.666Z</time></trkpt><trkpt lat="43.668134" lon="10.9400286"><ele>86.0</ele><time>2026-04-18T08:38:03.664Z</time></trkpt><trkpt lat="43.6681506" lon="10.9401326"><ele>86.0</ele><time>2026-04-18T08:38:09.665Z</time></trkpt><trkpt lat="43.6681683" lon="10.9402348"><ele>86.0</ele><time>2026-04-18T08:38:15.569Z</time></trkpt><trkpt lat="43.6681883" lon="10.9403263"><ele>86.00000000000001</ele><time>2026-04-18T08:38:21.664Z</time></trkpt><trkpt lat="43.6682034" lon="10.9404226"><ele>86.0</ele><time>2026-04-18T08:38:27.687Z</time></trkpt><trkpt lat="43.66822" lon="10.9405169"><ele>86.57142857142858</ele><time>2026-04-18T08:38:33.665Z</time></trkpt><trkpt lat="43.6682417" lon="10.9406103"><ele>87.14285714285714</ele><time>2026-04-18T08:38:39.664Z</time></trkpt><trkpt lat="43.6682628" lon="10.9406964"><ele>87.71428571428572</ele><time>2026-04-18T08:38:45.571Z</time></trkpt><trkpt lat="43.6682642" lon="10.9407934"><ele>88.28571428571429</ele><time>2026-04-18T08:38:51.665Z</time></trkpt><trkpt lat="43.6682256" lon="10.9408738"><ele>88.85714285714286</ele><time>2026-04-18T08:38:57.664Z</time></trkpt><trkpt lat="43.668162" lon="10.9409164"><ele>89.42857142857143</ele><time>2026-04-18T08:39:03.664Z</time></trkpt><trkpt lat="43.6680864" lon="10.9409223"><ele>90.0</ele><time>2026-04-18T08:39:09.666Z</time></trkpt><trkpt lat="43.6680169" lon="10.940934"><ele>90.0</ele><time>2026-04-18T08:39:15.664Z</time></trkpt><trkpt lat="43.6679492" lon="10.9409587"><ele>90.0</ele><time>2026-04-18T08:39:21.665Z</time></trkpt><trkpt lat="43.6678828" lon="10.9409722"><ele>90.0</ele><time>2026-04-18T08:39:27.664Z</time></trkpt><trkpt lat="43.6678102" lon="10.940991"><ele>90.0</ele><time>2026-04-18T08:39:33.664Z</time></trkpt><trkpt lat="43.6677474" lon="10.941015"><ele>90.0</ele><time>2026-04-18T08:39:39.307Z</time></trkpt><trkpt lat="43.6676831" lon="10.9410429"><ele>90.0</ele><time>2026-04-18T08:39:45.664Z</time></trkpt><trkpt lat="43.6676311" lon="10.9410996"><ele>90.0</ele><time>2026-04-18T08:40:00.664Z</time></trkpt><trkpt lat="43.6676038" lon="10.9411856"><ele>92.0</ele><time>2026-04-18T08:40:06.667Z</time></trkpt><trkpt lat="43.6675562" lon="10.9412504"><ele>94.0</ele><time>2026-04-18T08:40:13.665Z</time></trkpt><trkpt lat="43.6675253" lon="10.9411675"><ele>96.0</ele><time>2026-04-18T08:40:30.664Z</time></trkpt><trkpt lat="43.6675728" lon="10.9411078"><ele>98.0</ele><time>2026-04-18T08:40:36.597Z</time></trkpt><trkpt lat="43.6675556" lon="10.9410165"><ele>100.0</ele><time>2026-04-18T08:40:42.665Z</time></trkpt><trkpt lat="43.6675085" lon="10.9409586"><ele>102.0</ele><time>2026-04-18T08:40:47.664Z</time></trkpt><trkpt lat="43.6674562" lon="10.9408933"><ele>104.0</ele><time>2026-04-18T08:40:53.664Z</time></trkpt><trkpt lat="43.6674116" lon="10.9408294"><ele>104.0</ele><time>2026-04-18T08:40:59.682Z</time></trkpt><trkpt lat="43.6673612" lon="10.9407504"><ele>104.0</ele><time>2026-04-18T08:41:05.664Z</time></trkpt><trkpt lat="43.667311" lon="10.940677"><ele>104.0</ele><time>2026-04-18T08:41:11.664Z</time></trkpt><trkpt lat="43.6672591" lon="10.9405996"><ele>104.0</ele><time>2026-04-18T08:41:17.667Z</time></trkpt><trkpt lat="43.6672149" lon="10.9405267"><ele>104.0</ele><time>2026-04-18T08:41:23.665Z</time></trkpt><trkpt lat="43.6671657" lon="10.9404509"><ele>104.0</ele><time>2026-04-18T08:41:29.691Z</time></trkpt><trkpt lat="43.6671207" lon="10.9403756"><ele>104.0</ele><time>2026-04-18T08:41:35.65Z</time></trkpt><trkpt lat="43.6670841" lon="10.9402926"><ele>104.0</ele><time>2026-04-18T08:41:41.664Z</time></trkpt><trkpt lat="43.6671064" lon="10.9402085"><ele>104.0</ele><time>2026-04-18T08:41:47.671Z</time></trkpt><trkpt lat="43.6671516" lon="10.9401319"><ele>104.0</ele><time>2026-04-18T08:41:53.665Z</time></trkpt><trkpt lat="43.667184" lon="10.9400558"><ele>104.0</ele><time>2026-04-18T08:41:59.668Z</time></trkpt><trkpt lat="43.6672215" lon="10.9399753"><ele>104.0</ele><time>2026-04-18T08:42:05.665Z</time></trkpt><trkpt lat="43.6672597" lon="10.9398952"><ele>104.0</ele><time>2026-04-18T08:42:11.665Z</time></trkpt><trkpt lat="43.6672937" lon="10.9398058"><ele>104.0</ele><time>2026-04-18T08:42:17.652Z</time></trkpt><trkpt lat="43.6673191" lon="10.9397188"><ele>103.0</ele><time>2026-04-18T08:42:23.665Z</time></trkpt><trkpt lat="43.6673321" lon="10.9396241"><ele>102.0</ele><time>2026-04-18T08:42:29.669Z</time></trkpt><trkpt lat="43.6673348" lon="10.9395342"><ele>101.0</ele><time>2026-04-18T08:42:34.664Z</time></trkpt><trkpt lat="43.6673176" lon="10.9394327"><ele>100.0</ele><time>2026-04-18T08:42:40.572Z</time></trkpt><trkpt lat="43.6672961" lon="10.9393441"><ele>99.0</ele><time>2026-04-18T08:42:45.664Z</time></trkpt><trkpt lat="43.6672819" lon="10.9392454"><ele>98.0</ele><time>2026-04-18T08:42:51.664Z</time></trkpt><trkpt lat="43.6672806" lon="10.9391448"><ele>97.0</ele><time>2026-04-18T08:42:57.588Z</time></trkpt><trkpt lat="43.6672853" lon="10.9390493"><ele>96.0</ele><time>2026-04-18T08:43:03.665Z</time></trkpt><trkpt lat="43.6672732" lon="10.9389593"><ele>95.0</ele><time>2026-04-18T08:43:09.665Z</time></trkpt><trkpt lat="43.6672879" lon="10.9388686"><ele>94.0</ele><time>2026-04-18T08:43:17.706Z</time></trkpt><trkpt lat="43.6672492" lon="10.9387862"><ele>93.0</ele><time>2026-04-18T08:43:24.666Z</time></trkpt><trkpt lat="43.6672558" lon="10.9386886"><ele>92.0</ele><time>2026-04-18T08:43:31.664Z</time></trkpt><trkpt lat="43.6672498" lon="10.938594"><ele>91.0</ele><time>2026-04-18T08:43:37.704Z</time></trkpt><trkpt lat="43.6672374" lon="10.938504"><ele>90.0</ele><time>2026-04-18T08:43:42.665Z</time></trkpt><trkpt lat="43.6672205" lon="10.9384126"><ele>89.14285714285714</ele><time>2026-04-18T08:43:48.665Z</time></trkpt><trkpt lat="43.6671898" lon="10.9383267"><ele>88.28571428571429</ele><time>2026-04-18T08:43:54.697Z</time></trkpt><trkpt lat="43.667166" lon="10.9382353"><ele>87.42857142857143</ele><time>2026-04-18T08:44:00.664Z</time></trkpt><trkpt lat="43.6671467" lon="10.9381487"><ele>86.57142857142857</ele><time>2026-04-18T08:44:06.665Z</time></trkpt><trkpt lat="43.6671363" lon="10.9380584"><ele>85.71428571428572</ele><time>2026-04-18T08:44:12.621Z</time></trkpt><trkpt lat="43.6671185" lon="10.9379696"><ele>84.85714285714286</ele><time>2026-04-18T08:44:18.62Z</time></trkpt><trkpt lat="43.6670915" lon="10.9378807"><ele>84.0</ele><time>2026-04-18T08:44:24.67Z</time></trkpt><trkpt lat="43.6670449" lon="10.9378148"><ele>84.0</ele><time>2026-04-18T08:44:30.664Z</time></trkpt><trkpt lat="43.6670254" lon="10.9377279"><ele>84.0</ele><time>2026-04-18T08:44:36.675Z</time></trkpt><trkpt lat="43.6669954" lon="10.9376353"><ele>84.0</ele><time>2026-04-18T08:44:43.615Z</time></trkpt><trkpt lat="43.6669672" lon="10.9375515"><ele>84.0</ele><time>2026-04-18T08:44:49.664Z</time></trkpt><trkpt lat="43.6669691" lon="10.9374556"><ele>84.0</ele><time>2026-04-18T08:44:55.664Z</time></trkpt><trkpt lat="43.6669786" lon="10.9373632"><ele>84.0</ele><time>2026-04-18T08:45:01.664Z</time></trkpt><trkpt lat="43.6669833" lon="10.9372715"><ele>84.0</ele><time>2026-04-18T08:45:07.665Z</time></trkpt><trkpt lat="43.6669655" lon="10.9371795"><ele>83.57142857142857</ele><time>2026-04-18T08:45:12.665Z</time></trkpt><trkpt lat="43.6669447" lon="10.9370943"><ele>83.14285714285714</ele><time>2026-04-18T08:45:18.574Z</time></trkpt><trkpt lat="43.6669281" lon="10.9370018"><ele>82.71428571428572</ele><time>2026-04-18T08:45:24.664Z</time></trkpt><trkpt lat="43.6669136" lon="10.9369136"><ele>82.28571428571428</ele><time>2026-04-18T08:45:30.665Z</time></trkpt><trkpt lat="43.6669035" lon="10.9368274"><ele>81.85714285714286</ele><time>2026-04-18T08:45:35.617Z</time></trkpt><trkpt lat="43.6668944" lon="10.9367392"><ele>81.42857142857143</ele><time>2026-04-18T08:45:41.664Z</time></trkpt><trkpt lat="43.6668848" lon="10.936646"><ele>81.0</ele><time>2026-04-18T08:45:47.586Z</time></trkpt><trkpt lat="43.6668688" lon="10.9365608"><ele>80.57142857142857</ele><time>2026-04-18T08:45:52.664Z</time></trkpt><trkpt lat="43.6668606" lon="10.9364709"><ele>80.14285714285714</ele><time>2026-04-18T08:45:58.664Z</time></trkpt><trkpt lat="43.6668517" lon="10.9363843"><ele>79.71428571428572</ele><time>2026-04-18T08:46:04.664Z</time></trkpt><trkpt lat="43.6668256" lon="10.9362867"><ele>79.28571428571428</ele><time>2026-04-18T08:46:12.665Z</time></trkpt><trkpt lat="43.6668235" lon="10.9361948"><ele>78.85714285714285</ele><time>2026-04-18T08:46:18.69Z</time></trkpt><trkpt lat="43.6668249" lon="10.9361004"><ele>78.42857142857143</ele><time>2026-04-18T08:46:23.665Z</time></trkpt><trkpt lat="43.6668058" lon="10.9360006"><ele>78.0</ele><time>2026-04-18T08:46:29.667Z</time></trkpt><trkpt lat="43.6667886" lon="10.9359096"><ele>78.0</ele><time>2026-04-18T08:46:35.705Z</time></trkpt><trkpt lat="43.6667674" lon="10.9358231"><ele>78.0</ele><time>2026-04-18T08:46:41.665Z</time></trkpt><trkpt lat="43.6667402" lon="10.9357412"><ele>78.0</ele><time>2026-04-18T08:46:47.692Z</time></trkpt><trkpt lat="43.6667058" lon="10.9356583"><ele>78.0</ele><time>2026-04-18T08:46:53.664Z</time></trkpt><trkpt lat="43.6666661" lon="10.9355772"><ele>78.0</ele><time>2026-04-18T08:46:59.67Z</time></trkpt><trkpt lat="43.6666139" lon="10.9355091"><ele>78.0</ele><time>2026-04-18T08:47:05.664Z</time></trkpt><trkpt lat="43.6665538" lon="10.9354525"><ele>78.0</ele><time>2026-04-18T08:47:12.255Z</time></trkpt><trkpt lat="43.6665012" lon="10.9353846"><ele>78.0</ele><time>2026-04-18T08:47:17.675Z</time></trkpt><trkpt lat="43.6664546" lon="10.935316"><ele>78.0</ele><time>2026-04-18T08:47:23.669Z</time></trkpt><trkpt lat="43.6664028" lon="10.9352626"><ele>78.0</ele><time>2026-04-18T08:47:28.669Z</time></trkpt><trkpt lat="43.6663591" lon="10.9351981"><ele>78.0</ele><time>2026-04-18T08:47:33.657Z</time></trkpt><trkpt lat="43.6663053" lon="10.9351253"><ele>78.0</ele><time>2026-04-18T08:47:39.688Z</time></trkpt><trkpt lat="43.6662666" lon="10.9350538"><ele>78.0</ele><time>2026-04-18T08:47:44.668Z</time></trkpt><trkpt lat="43.6662211" lon="10.9349803"><ele>78.0</ele><time>2026-04-18T08:47:50.661Z</time></trkpt><trkpt lat="43.6661758" lon="10.934903"><ele>77.57142857142857</ele><time>2026-04-18T08:47:56.669Z</time></trkpt><trkpt lat="43.6661227" lon="10.934825"><ele>77.14285714285714</ele><time>2026-04-18T08:48:02.679Z</time></trkpt><trkpt lat="43.666077" lon="10.9347584"><ele>76.71428571428571</ele><time>2026-04-18T08:48:08.668Z</time></trkpt><trkpt lat="43.6660281" lon="10.9346867"><ele>76.28571428571428</ele><time>2026-04-18T08:48:14.668Z</time></trkpt><trkpt lat="43.6659891" lon="10.9346047"><ele>75.85714285714286</ele><time>2026-04-18T08:48:21.668Z</time></trkpt><trkpt lat="43.6659488" lon="10.9345272"><ele>75.42857142857142</ele><time>2026-04-18T08:48:27.669Z</time></trkpt><trkpt lat="43.665902" lon="10.9344517"><ele>75.0</ele><time>2026-04-18T08:48:33.668Z</time></trkpt><trkpt lat="43.6658564" lon="10.9343782"><ele>74.71428571428571</ele><time>2026-04-18T08:48:39.59Z</time></trkpt><trkpt lat="43.6658126" lon="10.9342916"><ele>74.42857142857143</ele><time>2026-04-18T08:48:45.682Z</time></trkpt><trkpt lat="43.6657766" lon="10.9342121"><ele>74.14285714285714</ele><time>2026-04-18T08:48:51.669Z</time></trkpt><trkpt lat="43.6657547" lon="10.934128"><ele>73.85714285714286</ele><time>2026-04-18T08:48:57.68Z</time></trkpt><trkpt lat="43.665739" lon="10.9340409"><ele>73.57142857142857</ele><time>2026-04-18T08:49:04.637Z</time></trkpt><trkpt lat="43.6657116" lon="10.9339586"><ele>73.28571428571428</ele><time>2026-04-18T08:49:10.679Z</time></trkpt><trkpt lat="43.6656805" lon="10.9338771"><ele>73.0</ele><time>2026-04-18T08:49:16.669Z</time></trkpt><trkpt lat="43.6656574" lon="10.933795"><ele>73.0</ele><time>2026-04-18T08:49:37.679Z</time></trkpt><trkpt lat="43.6656528" lon="10.933706"><ele>73.0</ele><time>2026-04-18T08:49:43.669Z</time></trkpt><trkpt lat="43.6656029" lon="10.9336504"><ele>73.0</ele><time>2026-04-18T08:49:50.594Z</time></trkpt><trkpt lat="43.6655592" lon="10.9335681"><ele>73.0</ele><time>2026-04-18T08:49:57.697Z</time></trkpt><trkpt lat="43.6655008" lon="10.9335254"><ele>73.0</ele><time>2026-04-18T08:50:05.668Z</time></trkpt><trkpt lat="43.6654761" lon="10.9334254"><ele>73.0</ele><time>2026-04-18T08:50:10.615Z</time></trkpt><trkpt lat="43.665465" lon="10.9333153"><ele>73.0</ele><time>2026-04-18T08:50:15.668Z</time></trkpt><trkpt lat="43.6654405" lon="10.9332337"><ele>73.0</ele><time>2026-04-18T08:50:21.651Z</time></trkpt><trkpt lat="43.6654148" lon="10.9331411"><ele>73.0</ele><time>2026-04-18T08:50:27.668Z</time></trkpt><trkpt lat="43.6653815" lon="10.9330602"><ele>73.0</ele><time>2026-04-18T08:50:33.669Z</time></trkpt><trkpt lat="43.6654292" lon="10.9331186"><ele>73.0</ele><time>2026-04-18T08:50:47.668Z</time></trkpt><trkpt lat="43.6654541" lon="10.9332018"><ele>73.0</ele><time>2026-04-18T08:50:52.67Z</time></trkpt><trkpt lat="43.6654699" lon="10.9332952"><ele>73.0</ele><time>2026-04-18T08:50:58.597Z</time></trkpt><trkpt lat="43.665491" lon="10.9333857"><ele>73.0</ele><time>2026-04-18T08:51:04.669Z</time></trkpt><trkpt lat="43.6655136" lon="10.9334721"><ele>73.0</ele><time>2026-04-18T08:51:10.669Z</time></trkpt><trkpt lat="43.6655447" lon="10.9335549"><ele>73.0</ele><time>2026-04-18T08:51:16.668Z</time></trkpt><trkpt lat="43.6655845" lon="10.9336332"><ele>73.0</ele><time>2026-04-18T08:51:22.593Z</time></trkpt><trkpt lat="43.6656267" lon="10.9337151"><ele>73.0</ele><time>2026-04-18T08:51:38.668Z</time></trkpt><trkpt lat="43.6656622" lon="10.9338029"><ele>73.0</ele><time>2026-04-18T08:51:44.684Z</time></trkpt><trkpt lat="43.665687" lon="10.9338921"><ele>73.0</ele><time>2026-04-18T08:51:50.612Z</time></trkpt><trkpt lat="43.6657107" lon="10.9339826"><ele>73.0</ele><time>2026-04-18T08:51:56.681Z</time></trkpt><trkpt lat="43.6657462" lon="10.9340685"><ele>73.0</ele><time>2026-04-18T08:52:02.668Z</time></trkpt><trkpt lat="43.6657769" lon="10.9341549"><ele>73.0</ele><time>2026-04-18T08:52:08.679Z</time></trkpt><trkpt lat="43.6657958" lon="10.9342527"><ele>73.0</ele><time>2026-04-18T08:52:14.668Z</time></trkpt><trkpt lat="43.6658303" lon="10.9343288"><ele>73.0</ele><time>2026-04-18T08:52:19.669Z</time></trkpt><trkpt lat="43.6658792" lon="10.9344004"><ele>73.0</ele><time>2026-04-18T08:52:25.668Z</time></trkpt><trkpt lat="43.6659231" lon="10.9344824"><ele>73.0</ele><time>2026-04-18T08:52:31.671Z</time></trkpt><trkpt lat="43.6659707" lon="10.9345578"><ele>73.0</ele><time>2026-04-18T08:52:37.679Z</time></trkpt><trkpt lat="43.6660148" lon="10.9346361"><ele>73.28571428571428</ele><time>2026-04-18T08:52:43.668Z</time></trkpt><trkpt lat="43.6660572" lon="10.9347072"><ele>73.57142857142857</ele><time>2026-04-18T08:52:49.676Z</time></trkpt><trkpt lat="43.6661083" lon="10.9347803"><ele>73.85714285714286</ele><time>2026-04-18T08:52:55.669Z</time></trkpt><trkpt lat="43.6661549" lon="10.9348571"><ele>74.14285714285714</ele><time>2026-04-18T08:53:01.668Z</time></trkpt><trkpt lat="43.6662053" lon="10.9349264"><ele>74.42857142857143</ele><time>2026-04-18T08:53:07.682Z</time></trkpt><trkpt lat="43.6662465" lon="10.9349988"><ele>74.71428571428571</ele><time>2026-04-18T08:53:12.669Z</time></trkpt><trkpt lat="43.6662871" lon="10.9350712"><ele>75.0</ele><time>2026-04-18T08:53:18.679Z</time></trkpt><trkpt lat="43.6663335" lon="10.9351459"><ele>75.42857142857142</ele><time>2026-04-18T08:53:24.668Z</time></trkpt><trkpt lat="43.6663802" lon="10.935216"><ele>75.85714285714286</ele><time>2026-04-18T08:53:30.653Z</time></trkpt><trkpt lat="43.6664277" lon="10.9352852"><ele>76.28571428571428</ele><time>2026-04-18T08:53:36.492Z</time></trkpt><trkpt lat="43.6664774" lon="10.9353433"><ele>76.71428571428571</ele><time>2026-04-18T08:53:41.688Z</time></trkpt><trkpt lat="43.666535" lon="10.9353967"><ele>77.14285714285714</ele><time>2026-04-18T08:53:46.679Z</time></trkpt><trkpt lat="43.6665856" lon="10.9354573"><ele>77.57142857142857</ele><time>2026-04-18T08:53:51.669Z</time></trkpt><trkpt lat="43.6666443" lon="10.9355134"><ele>78.0</ele><time>2026-04-18T08:53:57.673Z</time></trkpt><trkpt lat="43.6666933" lon="10.9355689"><ele>78.0</ele><time>2026-04-18T08:54:02.681Z</time></trkpt><trkpt lat="43.6667359" lon="10.9356528"><ele>78.0</ele><time>2026-04-18T08:54:08.659Z</time></trkpt><trkpt lat="43.6667678" lon="10.9357455"><ele>78.0</ele><time>2026-04-18T08:54:14.677Z</time></trkpt><trkpt lat="43.666779" lon="10.9358318"><ele>78.0</ele><time>2026-04-18T08:54:20.797Z</time></trkpt><trkpt lat="43.6667849" lon="10.935933"><ele>78.0</ele><time>2026-04-18T08:54:27.667Z</time></trkpt><trkpt lat="43.666798" lon="10.9360309"><ele>78.0</ele><time>2026-04-18T08:54:33.667Z</time></trkpt><trkpt lat="43.6668124" lon="10.9361208"><ele>78.0</ele><time>2026-04-18T08:54:38.69Z</time></trkpt><trkpt lat="43.6668265" lon="10.9362142"><ele>78.0</ele><time>2026-04-18T08:54:44.681Z</time></trkpt><trkpt lat="43.6668421" lon="10.9363141"><ele>78.0</ele><time>2026-04-18T08:54:50.667Z</time></trkpt><trkpt lat="43.6668525" lon="10.9364086"><ele>78.0</ele><time>2026-04-18T08:54:56.667Z</time></trkpt><trkpt lat="43.666861" lon="10.9365048"><ele>78.0</ele><time>2026-04-18T08:55:02.667Z</time></trkpt><trkpt lat="43.666884" lon="10.9366068"><ele>78.0</ele><time>2026-04-18T08:55:08.674Z</time></trkpt><trkpt lat="43.6669006" lon="10.9366925"><ele>78.0</ele><time>2026-04-18T08:55:14.58Z</time></trkpt><trkpt lat="43.6668972" lon="10.9367831"><ele>78.0</ele><time>2026-04-18T08:55:20.667Z</time></trkpt><trkpt lat="43.6669137" lon="10.936872"><ele>78.28571428571429</ele><time>2026-04-18T08:55:26.681Z</time></trkpt><trkpt lat="43.666933" lon="10.9369641"><ele>78.57142857142857</ele><time>2026-04-18T08:55:32.689Z</time></trkpt><trkpt lat="43.6669529" lon="10.9370695"><ele>78.85714285714286</ele><time>2026-04-18T08:55:39.668Z</time></trkpt><trkpt lat="43.6669699" lon="10.9371686"><ele>79.14285714285714</ele><time>2026-04-18T08:55:46.667Z</time></trkpt><trkpt lat="43.6669887" lon="10.9372629"><ele>79.42857142857143</ele><time>2026-04-18T08:55:52.668Z</time></trkpt><trkpt lat="43.6669893" lon="10.9373602"><ele>79.71428571428571</ele><time>2026-04-18T08:55:58.705Z</time></trkpt><trkpt lat="43.6669776" lon="10.9374504"><ele>80.0</ele><time>2026-04-18T08:56:04.667Z</time></trkpt><trkpt lat="43.6669761" lon="10.9375558"><ele>80.57142857142857</ele><time>2026-04-18T08:56:10.66Z</time></trkpt><trkpt lat="43.6670026" lon="10.9376497"><ele>81.14285714285714</ele><time>2026-04-18T08:56:17.668Z</time></trkpt><trkpt lat="43.6670364" lon="10.9377243"><ele>81.71428571428572</ele><time>2026-04-18T08:56:23.667Z</time></trkpt><trkpt lat="43.6670543" lon="10.937818"><ele>82.28571428571428</ele><time>2026-04-18T08:56:30.668Z</time></trkpt><trkpt lat="43.6670951" lon="10.9378912"><ele>82.85714285714286</ele><time>2026-04-18T08:56:36.679Z</time></trkpt><trkpt lat="43.6671363" lon="10.9379687"><ele>83.42857142857143</ele><time>2026-04-18T08:56:42.689Z</time></trkpt><trkpt lat="43.6671546" lon="10.9380666"><ele>84.0</ele><time>2026-04-18T08:56:49.667Z</time></trkpt><trkpt lat="43.6671631" lon="10.9381608"><ele>84.0</ele><time>2026-04-18T08:56:55.603Z</time></trkpt><trkpt lat="43.6671855" lon="10.9382564"><ele>84.0</ele><time>2026-04-18T08:57:02.667Z</time></trkpt><trkpt lat="43.6672074" lon="10.9383431"><ele>84.0</ele><time>2026-04-18T08:57:08.684Z</time></trkpt><trkpt lat="43.6672308" lon="10.938426"><ele>84.0</ele><time>2026-04-18T08:57:14.667Z</time></trkpt><trkpt lat="43.6672439" lon="10.9385149"><ele>84.0</ele><time>2026-04-18T08:57:20.682Z</time></trkpt><trkpt lat="43.6672558" lon="10.9386068"><ele>84.0</ele><time>2026-04-18T08:57:27.668Z</time></trkpt><trkpt lat="43.6672514" lon="10.9386986"><ele>84.0</ele><time>2026-04-18T08:57:33.68Z</time></trkpt><trkpt lat="43.6672557" lon="10.9387965"><ele>84.85714285714286</ele><time>2026-04-18T08:57:39.69Z</time></trkpt><trkpt lat="43.667267" lon="10.9388967"><ele>85.71428571428572</ele><time>2026-04-18T08:57:46.678Z</time></trkpt><trkpt lat="43.6672747" lon="10.9390058"><ele>86.57142857142857</ele><time>2026-04-18T08:57:53.71Z</time></trkpt><trkpt lat="43.6672805" lon="10.9390983"><ele>87.42857142857143</ele><time>2026-04-18T08:58:00.678Z</time></trkpt><trkpt lat="43.6672746" lon="10.9391894"><ele>88.28571428571429</ele><time>2026-04-18T08:58:06.667Z</time></trkpt><trkpt lat="43.6672855" lon="10.9392857"><ele>89.14285714285714</ele><time>2026-04-18T08:58:13.664Z</time></trkpt><trkpt lat="43.6673016" lon="10.9393788"><ele>90.0</ele><time>2026-04-18T08:58:18.664Z</time></trkpt><trkpt lat="43.6673224" lon="10.9394702"><ele>91.0</ele><time>2026-04-18T08:58:24.591Z</time></trkpt><trkpt lat="43.6673294" lon="10.9395688"><ele>92.0</ele><time>2026-04-18T08:58:30.569Z</time></trkpt><trkpt lat="43.6673174" lon="10.9396559"><ele>93.0</ele><time>2026-04-18T08:58:36.67Z</time></trkpt><trkpt lat="43.6673" lon="10.9397397"><ele>94.0</ele><time>2026-04-18T08:58:42.663Z</time></trkpt><trkpt lat="43.6672714" lon="10.939832"><ele>95.0</ele><time>2026-04-18T08:58:49.668Z</time></trkpt><trkpt lat="43.6672511" lon="10.9399163"><ele>96.0</ele><time>2026-04-18T08:58:55.663Z</time></trkpt><trkpt lat="43.667219" lon="10.9400016"><ele>97.0</ele><time>2026-04-18T08:59:01.666Z</time></trkpt><trkpt lat="43.6671697" lon="10.9400768"><ele>98.0</ele><time>2026-04-18T08:59:08.663Z</time></trkpt><trkpt lat="43.6671412" lon="10.940167"><ele>99.0</ele><time>2026-04-18T08:59:14.673Z</time></trkpt><trkpt lat="43.6671197" lon="10.940249"><ele>100.0</ele><time>2026-04-18T08:59:20.673Z</time></trkpt><trkpt lat="43.6670776" lon="10.9403146"><ele>101.0</ele><time>2026-04-18T08:59:26.682Z</time></trkpt><trkpt lat="43.6671212" lon="10.9403849"><ele>102.0</ele><time>2026-04-18T09:02:06.663Z</time></trkpt><trkpt lat="43.6671702" lon="10.9404616"><ele>103.0</ele><time>2026-04-18T09:02:12.663Z</time></trkpt><trkpt lat="43.6672125" lon="10.9405268"><ele>104.0</ele><time>2026-04-18T09:02:18.663Z</time></trkpt><trkpt lat="43.6672583" lon="10.9405883"><ele>104.0</ele><time>2026-04-18T09:02:24.665Z</time></trkpt><trkpt lat="43.6673058" lon="10.9406545"><ele>104.0</ele><time>2026-04-18T09:02:30.673Z</time></trkpt><trkpt lat="43.6673526" lon="10.9407291"><ele>104.0</ele><time>2026-04-18T09:02:36.663Z</time></trkpt><trkpt lat="43.6673967" lon="10.9407978"><ele>104.0</ele><time>2026-04-18T09:02:42.671Z</time></trkpt><trkpt lat="43.6674449" lon="10.9408635"><ele>104.0</ele><time>2026-04-18T09:02:48.664Z</time></trkpt><trkpt lat="43.6674933" lon="10.9409347"><ele>104.0</ele><time>2026-04-18T09:02:54.67Z</time></trkpt><trkpt lat="43.6675336" lon="10.9410018"><ele>104.0</ele><time>2026-04-18T09:02:59.663Z</time></trkpt><trkpt lat="43.6675575" lon="10.9410839"><ele>104.42857142857143</ele><time>2026-04-18T09:03:04.652Z</time></trkpt><trkpt lat="43.6675448" lon="10.9411703"><ele>104.85714285714286</ele><time>2026-04-18T09:03:10.673Z</time></trkpt><trkpt lat="43.667515" lon="10.9412573"><ele>105.28571428571429</ele><time>2026-04-18T09:03:16.621Z</time></trkpt><trkpt lat="43.6674982" lon="10.9413499"><ele>105.71428571428572</ele><time>2026-04-18T09:03:22.617Z</time></trkpt><trkpt lat="43.6674714" lon="10.9414387"><ele>106.14285714285714</ele><time>2026-04-18T09:03:27.664Z</time></trkpt><trkpt lat="43.6674496" lon="10.9415257"><ele>106.57142857142858</ele><time>2026-04-18T09:03:33.654Z</time></trkpt><trkpt lat="43.6674325" lon="10.9416145"><ele>107.0</ele><time>2026-04-18T09:03:39.664Z</time></trkpt><trkpt lat="43.6674094" lon="10.9417006"><ele>107.28571428571429</ele><time>2026-04-18T09:03:44.664Z</time></trkpt><trkpt lat="43.6673888" lon="10.9417899"><ele>107.57142857142857</ele><time>2026-04-18T09:03:50.671Z</time></trkpt><trkpt lat="43.6673623" lon="10.9418816"><ele>107.85714285714286</ele><time>2026-04-18T09:03:57.681Z</time></trkpt><trkpt lat="43.6673351" lon="10.9419669"><ele>108.14285714285714</ele><time>2026-04-18T09:04:03.671Z</time></trkpt><trkpt lat="43.667308" lon="10.9420585"><ele>108.42857142857143</ele><time>2026-04-18T09:04:09.663Z</time></trkpt><trkpt lat="43.66729" lon="10.9421574"><ele>108.71428571428572</ele><time>2026-04-18T09:04:15.668Z</time></trkpt><trkpt lat="43.6672768" lon="10.942254"><ele>109.0</ele><time>2026-04-18T09:04:21.663Z</time></trkpt><trkpt lat="43.6672729" lon="10.9423472"><ele>109.0</ele><time>2026-04-18T09:04:27.654Z</time></trkpt><trkpt lat="43.6672526" lon="10.9424348"><ele>109.0</ele><time>2026-04-18T09:04:33.663Z</time></trkpt><trkpt lat="43.6672446" lon="10.9425271"><ele>109.0</ele><time>2026-04-18T09:04:39.664Z</time></trkpt><trkpt lat="43.6672432" lon="10.9426249"><ele>109.0</ele><time>2026-04-18T09:04:45.672Z</time></trkpt><trkpt lat="43.6672298" lon="10.9427275"><ele>109.0</ele><time>2026-04-18T09:04:51.663Z</time></trkpt><trkpt lat="43.6672367" lon="10.9428266"><ele>109.0</ele><time>2026-04-18T09:04:57.67Z</time></trkpt><trkpt lat="43.6672383" lon="10.9429226"><ele>109.0</ele><time>2026-04-18T09:05:03.663Z</time></trkpt><trkpt lat="43.6672374" lon="10.9430249"><ele>109.42857142857143</ele><time>2026-04-18T09:05:09.667Z</time></trkpt><trkpt lat="43.6672385" lon="10.9431264"><ele>109.85714285714286</ele><time>2026-04-18T09:05:15.664Z</time></trkpt><trkpt lat="43.6672393" lon="10.9432219"><ele>110.28571428571428</ele><time>2026-04-18T09:05:21.573Z</time></trkpt><trkpt lat="43.6672533" lon="10.94331"><ele>110.71428571428572</ele><time>2026-04-18T09:05:27.663Z</time></trkpt><trkpt lat="43.6672438" lon="10.9433967"><ele>111.14285714285714</ele><time>2026-04-18T09:05:32.711Z</time></trkpt><trkpt lat="43.6672523" lon="10.9434877"><ele>111.57142857142857</ele><time>2026-04-18T09:05:38.663Z</time></trkpt><trkpt lat="43.6672619" lon="10.9435843"><ele>112.0</ele><time>2026-04-18T09:05:44.646Z</time></trkpt><trkpt lat="43.667279" lon="10.9436884"><ele>112.85714285714286</ele><time>2026-04-18T09:05:50.667Z</time></trkpt><trkpt lat="43.6672937" lon="10.9437813"><ele>113.71428571428572</ele><time>2026-04-18T09:05:56.663Z</time></trkpt><trkpt lat="43.6673078" lon="10.9438801"><ele>114.57142857142857</ele><time>2026-04-18T09:06:02.664Z</time></trkpt><trkpt lat="43.6673226" lon="10.9439774"><ele>115.42857142857143</ele><time>2026-04-18T09:06:08.673Z</time></trkpt><trkpt lat="43.6673395" lon="10.9440729"><ele>116.28571428571429</ele><time>2026-04-18T09:06:14.663Z</time></trkpt><trkpt lat="43.6673506" lon="10.9441675"><ele>117.14285714285714</ele><time>2026-04-18T09:06:20.571Z</time></trkpt><trkpt lat="43.6673443" lon="10.9442664"><ele>118.0</ele><time>2026-04-18T09:06:26.663Z</time></trkpt><trkpt lat="43.6673349" lon="10.9443674"><ele>118.71428571428571</ele><time>2026-04-18T09:06:32.669Z</time></trkpt><trkpt lat="43.6673438" lon="10.9444683"><ele>119.42857142857144</ele><time>2026-04-18T09:06:38.663Z</time></trkpt><trkpt lat="43.6673696" lon="10.9445618"><ele>120.14285714285715</ele><time>2026-04-18T09:06:44.666Z</time></trkpt><trkpt lat="43.6674112" lon="10.9446406"><ele>120.85714285714286</ele><time>2026-04-18T09:06:50.664Z</time></trkpt><trkpt lat="43.667466" lon="10.9446952"><ele>121.57142857142858</ele><time>2026-04-18T09:06:55.664Z</time></trkpt><trkpt lat="43.667519" lon="10.9447595"><ele>122.2857142857143</ele><time>2026-04-18T09:07:01.63Z</time></trkpt><trkpt lat="43.6675689" lon="10.9448271"><ele>123.00000000000001</ele><time>2026-04-18T09:07:07.663Z</time></trkpt><trkpt lat="43.6676141" lon="10.9448988"><ele>123.00000000000001</ele><time>2026-04-18T09:07:13.669Z</time></trkpt><trkpt lat="43.6676621" lon="10.944964"><ele>123.0</ele><time>2026-04-18T09:07:19.664Z</time></trkpt><trkpt lat="43.6677079" lon="10.9450304"><ele>123.00000000000001</ele><time>2026-04-18T09:07:25.666Z</time></trkpt><trkpt lat="43.6677573" lon="10.9451027"><ele>123.00000000000001</ele><time>2026-04-18T09:07:31.613Z</time></trkpt><trkpt lat="43.6677811" lon="10.945194"><ele>123.0</ele><time>2026-04-18T09:07:37.663Z</time></trkpt><trkpt lat="43.667789" lon="10.9452808"><ele>123.00000000000001</ele><time>2026-04-18T09:07:45.664Z</time></trkpt><trkpt lat="43.6678516" lon="10.9453345"><ele>123.00000000000001</ele><time>2026-04-18T09:07:51.664Z</time></trkpt><trkpt lat="43.6679127" lon="10.9453704"><ele>122.71428571428572</ele><time>2026-04-18T09:07:56.671Z</time></trkpt><trkpt lat="43.6679786" lon="10.9453871"><ele>122.42857142857143</ele><time>2026-04-18T09:08:02.663Z</time></trkpt><trkpt lat="43.6680382" lon="10.9454167"><ele>122.14285714285714</ele><time>2026-04-18T09:08:12.663Z</time></trkpt><trkpt lat="43.6680669" lon="10.9455144"><ele>121.85714285714286</ele><time>2026-04-18T09:08:18.352Z</time></trkpt><trkpt lat="43.6680595" lon="10.9456022"><ele>121.57142857142856</ele><time>2026-04-18T09:08:23.669Z</time></trkpt><trkpt lat="43.668115" lon="10.9456686"><ele>121.28571428571428</ele><time>2026-04-18T09:08:28.67Z</time></trkpt><trkpt lat="43.668171" lon="10.9457178"><ele>121.0</ele><time>2026-04-18T09:08:33.613Z</time></trkpt><trkpt lat="43.6682236" lon="10.9457657"><ele>121.0</ele><time>2026-04-18T09:08:38.701Z</time></trkpt><trkpt lat="43.6682766" lon="10.9458148"><ele>120.99999999999999</ele><time>2026-04-18T09:08:43.669Z</time></trkpt><trkpt lat="43.6683328" lon="10.9458559"><ele>121.0</ele><time>2026-04-18T09:08:48.687Z</time></trkpt><trkpt lat="43.668395" lon="10.9459099"><ele>121.0</ele><time>2026-04-18T09:08:54.67Z</time></trkpt><trkpt lat="43.6684543" lon="10.9459484"><ele>120.99999999999999</ele><time>2026-04-18T09:08:59.669Z</time></trkpt><trkpt lat="43.6685216" lon="10.9459928"><ele>121.0</ele><time>2026-04-18T09:09:05.669Z</time></trkpt><trkpt lat="43.6685792" lon="10.9460349"><ele>121.0</ele><time>2026-04-18T09:09:10.688Z</time></trkpt><trkpt lat="43.6686427" lon="10.9460743"><ele>122.0</ele><time>2026-04-18T09:09:16.67Z</time></trkpt><trkpt lat="43.6687048" lon="10.9461131"><ele>122.99999999999999</ele><time>2026-04-18T09:09:22.67Z</time></trkpt><trkpt lat="43.6687751" lon="10.946154"><ele>124.0</ele><time>2026-04-18T09:09:28.686Z</time></trkpt><trkpt lat="43.6688425" lon="10.9461779"><ele>125.0</ele><time>2026-04-18T09:09:34.669Z</time></trkpt><trkpt lat="43.6689125" lon="10.9461864"><ele>125.99999999999999</ele><time>2026-04-18T09:09:40.67Z</time></trkpt><trkpt lat="43.6689867" lon="10.9461789"><ele>127.0</ele><time>2026-04-18T09:09:46.669Z</time></trkpt><trkpt lat="43.6690516" lon="10.9461827"><ele>128.0</ele><time>2026-04-18T09:09:51.67Z</time></trkpt><trkpt lat="43.6691213" lon="10.9461868"><ele>128.0</ele><time>2026-04-18T09:09:57.67Z</time></trkpt><trkpt lat="43.6691912" lon="10.9461851"><ele>127.99999999999999</ele><time>2026-04-18T09:10:03.669Z</time></trkpt><trkpt lat="43.6692601" lon="10.9461897"><ele>128.0</ele><time>2026-04-18T09:10:09.67Z</time></trkpt><trkpt lat="43.6693311" lon="10.9461685"><ele>128.0</ele><time>2026-04-18T09:10:15.669Z</time></trkpt><trkpt lat="43.6693954" lon="10.9461168"><ele>127.99999999999999</ele><time>2026-04-18T09:10:21.619Z</time></trkpt><trkpt lat="43.6694555" lon="10.9460794"><ele>128.0</ele><time>2026-04-18T09:10:26.67Z</time></trkpt><trkpt lat="43.6695199" lon="10.9460643"><ele>128.0</ele><time>2026-04-18T09:10:31.694Z</time></trkpt><trkpt lat="43.6695873" lon="10.9460423"><ele>128.71428571428572</ele><time>2026-04-18T09:10:37.67Z</time></trkpt><trkpt lat="43.6696567" lon="10.9460337"><ele>129.42857142857142</ele><time>2026-04-18T09:10:43.612Z</time></trkpt><trkpt lat="43.6697258" lon="10.9460183"><ele>130.14285714285714</ele><time>2026-04-18T09:10:49.669Z</time></trkpt><trkpt lat="43.6697902" lon="10.9460148"><ele>130.85714285714286</ele><time>2026-04-18T09:10:54.67Z</time></trkpt><trkpt lat="43.6698622" lon="10.9460044"><ele>131.57142857142856</ele><time>2026-04-18T09:11:00.575Z</time></trkpt><trkpt lat="43.6699251" lon="10.945983"><ele>132.28571428571428</ele><time>2026-04-18T09:11:05.669Z</time></trkpt><trkpt lat="43.6699969" lon="10.9459669"><ele>133.0</ele><time>2026-04-18T09:11:11.669Z</time></trkpt><trkpt lat="43.6700682" lon="10.9459576"><ele>133.0</ele><time>2026-04-18T09:11:17.669Z</time></trkpt><trkpt lat="43.6701375" lon="10.9459528"><ele>133.0</ele><time>2026-04-18T09:11:23.7Z</time></trkpt><trkpt lat="43.6702019" lon="10.9459532"><ele>133.0</ele><time>2026-04-18T09:11:29.669Z</time></trkpt><trkpt lat="43.6702661" lon="10.9459324"><ele>133.0</ele><time>2026-04-18T09:11:35.669Z</time></trkpt><trkpt lat="43.6703408" lon="10.9459272"><ele>133.0</ele><time>2026-04-18T09:11:41.669Z</time></trkpt><trkpt lat="43.670415" lon="10.9459244"><ele>133.0</ele><time>2026-04-18T09:11:47.67Z</time></trkpt><trkpt lat="43.6704856" lon="10.9459093"><ele>133.0</ele><time>2026-04-18T09:11:53.67Z</time></trkpt><trkpt lat="43.6705573" lon="10.9458974"><ele>132.28571428571428</ele><time>2026-04-18T09:11:59.669Z</time></trkpt><trkpt lat="43.6706297" lon="10.945898"><ele>131.57142857142856</ele><time>2026-04-18T09:12:05.669Z</time></trkpt><trkpt lat="43.6707015" lon="10.9459054"><ele>130.85714285714286</ele><time>2026-04-18T09:12:11.669Z</time></trkpt><trkpt lat="43.6707731" lon="10.9459181"><ele>130.14285714285714</ele><time>2026-04-18T09:12:17.588Z</time></trkpt><trkpt lat="43.6708418" lon="10.9459264"><ele>129.42857142857142</ele><time>2026-04-18T09:12:24.676Z</time></trkpt><trkpt lat="43.6709118" lon="10.9459356"><ele>128.71428571428572</ele><time>2026-04-18T09:12:28.669Z</time></trkpt><trkpt lat="43.6709769" lon="10.9459417"><ele>128.0</ele><time>2026-04-18T09:12:33.62Z</time></trkpt><trkpt lat="43.6710393" lon="10.9459539"><ele>128.0</ele><time>2026-04-18T09:12:38.577Z</time></trkpt><trkpt lat="43.6711042" lon="10.9460026"><ele>127.99999999999999</ele><time>2026-04-18T09:12:44.669Z</time></trkpt><trkpt lat="43.6711658" lon="10.9460435"><ele>128.0</ele><time>2026-04-18T09:12:50.599Z</time></trkpt><trkpt lat="43.671225" lon="10.9460954"><ele>128.0</ele><time>2026-04-18T09:12:55.67Z</time></trkpt><trkpt lat="43.6712765" lon="10.9461522"><ele>127.99999999999999</ele><time>2026-04-18T09:13:00.68Z</time></trkpt><trkpt lat="43.6713326" lon="10.9461997"><ele>128.0</ele><time>2026-04-18T09:13:05.669Z</time></trkpt><trkpt lat="43.6713812" lon="10.946256"><ele>128.0</ele><time>2026-04-18T09:13:11.614Z</time></trkpt><trkpt lat="43.6714335" lon="10.9463194"><ele>126.42857142857142</ele><time>2026-04-18T09:13:16.669Z</time></trkpt><trkpt lat="43.6714958" lon="10.9463813"><ele>124.85714285714285</ele><time>2026-04-18T09:13:21.67Z</time></trkpt><trkpt lat="43.671559" lon="10.9464374"><ele>123.28571428571428</ele><time>2026-04-18T09:13:28.67Z</time></trkpt><trkpt lat="43.6716244" lon="10.9464836"><ele>121.71428571428572</ele><time>2026-04-18T09:13:33.669Z</time></trkpt><trkpt lat="43.6716963" lon="10.9465241"><ele>120.14285714285715</ele><time>2026-04-18T09:13:39.676Z</time></trkpt><trkpt lat="43.6717574" lon="10.9465649"><ele>118.57142857142858</ele><time>2026-04-18T09:13:46.67Z</time></trkpt><trkpt lat="43.6718306" lon="10.9465916"><ele>117.0</ele><time>2026-04-18T09:13:52.669Z</time></trkpt><trkpt lat="43.6718994" lon="10.9466126"><ele>116.28571428571429</ele><time>2026-04-18T09:13:57.669Z</time></trkpt><trkpt lat="43.6719605" lon="10.9466377"><ele>115.57142857142858</ele><time>2026-04-18T09:14:02.67Z</time></trkpt><trkpt lat="43.6720267" lon="10.9466494"><ele>114.85714285714286</ele><time>2026-04-18T09:14:07.583Z</time></trkpt><trkpt lat="43.6720934" lon="10.9466629"><ele>114.14285714285714</ele><time>2026-04-18T09:14:13.67Z</time></trkpt><trkpt lat="43.6721645" lon="10.9466821"><ele>113.42857142857143</ele><time>2026-04-18T09:14:19.669Z</time></trkpt><trkpt lat="43.6722386" lon="10.9467037"><ele>112.71428571428572</ele><time>2026-04-18T09:14:26.669Z</time></trkpt><trkpt lat="43.6723073" lon="10.946721"><ele>112.0</ele><time>2026-04-18T09:14:31.669Z</time></trkpt><trkpt lat="43.6723724" lon="10.9467379"><ele>112.42857142857143</ele><time>2026-04-18T09:14:36.669Z</time></trkpt><trkpt lat="43.6724414" lon="10.9467632"><ele>112.85714285714286</ele><time>2026-04-18T09:14:42.662Z</time></trkpt><trkpt lat="43.6725059" lon="10.9467908"><ele>113.28571428571428</ele><time>2026-04-18T09:14:48.669Z</time></trkpt><trkpt lat="43.6725685" lon="10.9468106"><ele>113.71428571428571</ele><time>2026-04-18T09:14:53.67Z</time></trkpt><trkpt lat="43.6726317" lon="10.9468259"><ele>114.14285714285714</ele><time>2026-04-18T09:14:58.675Z</time></trkpt><trkpt lat="43.672704" lon="10.9468501"><ele>114.57142857142856</ele><time>2026-04-18T09:15:04.67Z</time></trkpt><trkpt lat="43.6727722" lon="10.9468762"><ele>114.99999999999999</ele><time>2026-04-18T09:15:10.67Z</time></trkpt><trkpt lat="43.6728399" lon="10.9469127"><ele>114.99999999999999</ele><time>2026-04-18T09:15:17.682Z</time></trkpt><trkpt lat="43.6729097" lon="10.9469381"><ele>115.0</ele><time>2026-04-18T09:15:22.669Z</time></trkpt><trkpt lat="43.6729792" lon="10.9469535"><ele>114.99999999999999</ele><time>2026-04-18T09:15:29.64Z</time></trkpt><trkpt lat="43.6730535" lon="10.9469529"><ele>114.99999999999999</ele><time>2026-04-18T09:15:34.669Z</time></trkpt><trkpt lat="43.6731235" lon="10.9469683"><ele>115.0</ele><time>2026-04-18T09:15:40.603Z</time></trkpt><trkpt lat="43.6731941" lon="10.9469802"><ele>114.99999999999999</ele><time>2026-04-18T09:15:46.669Z</time></trkpt><trkpt lat="43.673271" lon="10.9469863"><ele>114.99999999999999</ele><time>2026-04-18T09:15:53.67Z</time></trkpt><trkpt lat="43.6733424" lon="10.9469901"><ele>114.99999999999999</ele><time>2026-04-18T09:15:58.669Z</time></trkpt><trkpt lat="43.6734184" lon="10.9469645"><ele>115.0</ele><time>2026-04-18T09:16:04.67Z</time></trkpt><trkpt lat="43.6734814" lon="10.9469441"><ele>114.99999999999999</ele><time>2026-04-18T09:16:11.669Z</time></trkpt><trkpt lat="43.6735554" lon="10.9469118"><ele>114.99999999999999</ele><time>2026-04-18T09:16:18.67Z</time></trkpt><trkpt lat="43.6736162" lon="10.9468645"><ele>115.0</ele><time>2026-04-18T09:16:24.708Z</time></trkpt><trkpt lat="43.6736656" lon="10.9467965"><ele>114.99999999999999</ele><time>2026-04-18T09:16:29.669Z</time></trkpt><trkpt lat="43.6737214" lon="10.9467446"><ele>114.99999999999999</ele><time>2026-04-18T09:16:34.59Z</time></trkpt><trkpt lat="43.6737736" lon="10.9466878"><ele>113.33333333333334</ele><time>2026-04-18T09:16:41.669Z</time></trkpt><trkpt lat="43.6738321" lon="10.9466142"><ele>111.66666666666667</ele><time>2026-04-18T09:16:46.67Z</time></trkpt><trkpt lat="43.6738951" lon="10.9465637"><ele>110.0</ele><time>2026-04-18T09:16:53.669Z</time></trkpt><trkpt lat="43.6739426" lon="10.9464616"><ele>108.33333333333334</ele><time>2026-04-18T09:17:09.67Z</time></trkpt><trkpt lat="43.6739866" lon="10.9463928"><ele>106.66666666666667</ele><time>2026-04-18T09:17:14.669Z</time></trkpt><trkpt lat="43.6740421" lon="10.9463254"><ele>105.0</ele><time>2026-04-18T09:17:20.67Z</time></trkpt><trkpt lat="43.6740967" lon="10.9462622"><ele>105.0</ele><time>2026-04-18T09:17:26.592Z</time></trkpt><trkpt lat="43.6741529" lon="10.9461898"><ele>105.0</ele><time>2026-04-18T09:17:32.669Z</time></trkpt><trkpt lat="43.6742035" lon="10.9461245"><ele>105.0</ele><time>2026-04-18T09:17:38.61Z</time></trkpt><trkpt lat="43.6742379" lon="10.9460502"><ele>105.0</ele><time>2026-04-18T09:17:43.669Z</time></trkpt><trkpt lat="43.6742749" lon="10.9459779"><ele>105.0</ele><time>2026-04-18T09:17:48.593Z</time></trkpt><trkpt lat="43.6743154" lon="10.9458925"><ele>105.0</ele><time>2026-04-18T09:17:55.669Z</time></trkpt><trkpt lat="43.6743522" lon="10.9458107"><ele>105.0</ele><time>2026-04-18T09:18:01.669Z</time></trkpt><trkpt lat="43.6743922" lon="10.9457426"><ele>105.0</ele><time>2026-04-18T09:18:06.67Z</time></trkpt><trkpt lat="43.6744412" lon="10.945677"><ele>105.0</ele><time>2026-04-18T09:18:11.669Z</time></trkpt><trkpt lat="43.674494" lon="10.9456155"><ele>105.0</ele><time>2026-04-18T09:18:17.669Z</time></trkpt><trkpt lat="43.6745591" lon="10.9456052"><ele>105.0</ele><time>2026-04-18T09:18:24.646Z</time></trkpt><trkpt lat="43.6745952" lon="10.9456797"><ele>105.0</ele><time>2026-04-18T09:18:30.68Z</time></trkpt><trkpt lat="43.6746627" lon="10.9456917"><ele>105.0</ele><time>2026-04-18T09:18:37.67Z</time></trkpt><trkpt lat="43.6747304" lon="10.94572"><ele>105.0</ele><time>2026-04-18T09:18:44.669Z</time></trkpt><trkpt lat="43.6747977" lon="10.9457349"><ele>105.0</ele><time>2026-04-18T09:18:51.669Z</time></trkpt><trkpt lat="43.674834" lon="10.9456578"><ele>105.0</ele><time>2026-04-18T09:21:52.669Z</time></trkpt><trkpt lat="43.6747588" lon="10.945645"><ele>105.0</ele><time>2026-04-18T09:22:24.67Z</time></trkpt><trkpt lat="43.674688" lon="10.9456524"><ele>105.0</ele><time>2026-04-18T09:22:30.669Z</time></trkpt><trkpt lat="43.6746192" lon="10.945652"><ele>105.0</ele><time>2026-04-18T09:22:36.669Z</time></trkpt><trkpt lat="43.674554" lon="10.9456338"><ele>105.0</ele><time>2026-04-18T09:22:42.669Z</time></trkpt><trkpt lat="43.6745165" lon="10.9455634"><ele>105.0</ele><time>2026-04-18T09:22:47.702Z</time></trkpt><trkpt lat="43.6745699" lon="10.9454963"><ele>105.0</ele><time>2026-04-18T09:22:53.67Z</time></trkpt><trkpt lat="43.6746205" lon="10.9454339"><ele>105.0</ele><time>2026-04-18T09:22:58.67Z</time></trkpt><trkpt lat="43.6746658" lon="10.9453704"><ele>105.0</ele><time>2026-04-18T09:23:03.67Z</time></trkpt><trkpt lat="43.6747078" lon="10.9452888"><ele>105.0</ele><time>2026-04-18T09:23:09.669Z</time></trkpt><trkpt lat="43.6747399" lon="10.9452034"><ele>105.0</ele><time>2026-04-18T09:23:15.67Z</time></trkpt><trkpt lat="43.6747615" lon="10.9451173"><ele>105.0</ele><time>2026-04-18T09:23:21.67Z</time></trkpt><trkpt lat="43.6747823" lon="10.9450302"><ele>105.0</ele><time>2026-04-18T09:23:26.67Z</time></trkpt><trkpt lat="43.6748001" lon="10.9449372"><ele>105.71428571428571</ele><time>2026-04-18T09:23:32.584Z</time></trkpt><trkpt lat="43.6748198" lon="10.9448391"><ele>106.42857142857143</ele><time>2026-04-18T09:23:38.704Z</time></trkpt><trkpt lat="43.6748337" lon="10.9447375"><ele>107.14285714285714</ele><time>2026-04-18T09:23:44.669Z</time></trkpt><trkpt lat="43.6748516" lon="10.944644"><ele>107.85714285714286</ele><time>2026-04-18T09:23:50.67Z</time></trkpt><trkpt lat="43.6748736" lon="10.9445545"><ele>108.57142857142857</ele><time>2026-04-18T09:23:56.669Z</time></trkpt><trkpt lat="43.6748891" lon="10.944464"><ele>109.28571428571428</ele><time>2026-04-18T09:24:02.617Z</time></trkpt><trkpt lat="43.6748773" lon="10.944362"><ele>110.0</ele><time>2026-04-18T09:24:08.669Z</time></trkpt><trkpt lat="43.6748875" lon="10.9442754"><ele>110.28571428571428</ele><time>2026-04-18T09:24:13.669Z</time></trkpt><trkpt lat="43.6749122" lon="10.9441903"><ele>110.57142857142857</ele><time>2026-04-18T09:24:18.669Z</time></trkpt><trkpt lat="43.6749296" lon="10.9440953"><ele>110.85714285714286</ele><time>2026-04-18T09:24:24.638Z</time></trkpt><trkpt lat="43.6749408" lon="10.9439934"><ele>111.14285714285714</ele><time>2026-04-18T09:24:30.669Z</time></trkpt><trkpt lat="43.6749486" lon="10.9439065"><ele>111.42857142857143</ele><time>2026-04-18T09:24:35.67Z</time></trkpt><trkpt lat="43.6749689" lon="10.9438146"><ele>111.71428571428571</ele><time>2026-04-18T09:24:41.67Z</time></trkpt><trkpt lat="43.6749907" lon="10.9437158"><ele>112.0</ele><time>2026-04-18T09:24:47.669Z</time></trkpt><trkpt lat="43.6750104" lon="10.9436153"><ele>112.0</ele><time>2026-04-18T09:24:53.697Z</time></trkpt><trkpt lat="43.6750283" lon="10.9435225"><ele>112.0</ele><time>2026-04-18T09:25:01.669Z</time></trkpt><trkpt lat="43.6750757" lon="10.9434422"><ele>112.0</ele><time>2026-04-18T09:25:07.67Z</time></trkpt><trkpt lat="43.6751242" lon="10.9433612"><ele>112.0</ele><time>2026-04-18T09:25:13.669Z</time></trkpt><trkpt lat="43.6751733" lon="10.9432986"><ele>112.0</ele><time>2026-04-18T09:25:18.669Z</time></trkpt><trkpt lat="43.6752325" lon="10.9432484"><ele>112.0</ele><time>2026-04-18T09:25:25.669Z</time></trkpt><trkpt lat="43.6753019" lon="10.9432164"><ele>112.0</ele><time>2026-04-18T09:25:31.669Z</time></trkpt><trkpt lat="43.6753636" lon="10.9431967"><ele>112.28571428571428</ele><time>2026-04-18T09:25:37.67Z</time></trkpt><trkpt lat="43.6754286" lon="10.9431859"><ele>112.57142857142857</ele><time>2026-04-18T09:25:43.697Z</time></trkpt><trkpt lat="43.6754948" lon="10.9431781"><ele>112.85714285714286</ele><time>2026-04-18T09:25:49.669Z</time></trkpt><trkpt lat="43.6755651" lon="10.9431628"><ele>113.14285714285714</ele><time>2026-04-18T09:25:55.67Z</time></trkpt><trkpt lat="43.6756369" lon="10.943162"><ele>113.42857142857142</ele><time>2026-04-18T09:26:01.583Z</time></trkpt><trkpt lat="43.6757109" lon="10.9431631"><ele>113.71428571428571</ele><time>2026-04-18T09:26:07.67Z</time></trkpt><trkpt lat="43.6757831" lon="10.9431515"><ele>114.0</ele><time>2026-04-18T09:26:13.669Z</time></trkpt><trkpt lat="43.6758472" lon="10.9431374"><ele>114.0</ele><time>2026-04-18T09:26:18.669Z</time></trkpt><trkpt lat="43.675917" lon="10.9431113"><ele>113.99999999999999</ele><time>2026-04-18T09:26:25.67Z</time></trkpt><trkpt lat="43.6759771" lon="10.9430638"><ele>114.0</ele><time>2026-04-18T09:26:31.667Z</time></trkpt><trkpt lat="43.6760426" lon="10.9430153"><ele>114.0</ele><time>2026-04-18T09:26:38.669Z</time></trkpt><trkpt lat="43.6761019" lon="10.9429581"><ele>113.99999999999999</ele><time>2026-04-18T09:26:44.645Z</time></trkpt><trkpt lat="43.676137" lon="10.9428845"><ele>114.0</ele><time>2026-04-18T09:26:49.67Z</time></trkpt><trkpt lat="43.6761683" lon="10.9428023"><ele>114.0</ele><time>2026-04-18T09:26:54.669Z</time></trkpt><trkpt lat="43.6761829" lon="10.942701"><ele>113.71428571428571</ele><time>2026-04-18T09:27:00.67Z</time></trkpt><trkpt lat="43.6762103" lon="10.9426111"><ele>113.42857142857142</ele><time>2026-04-18T09:27:06.669Z</time></trkpt><trkpt lat="43.6762405" lon="10.9425332"><ele>113.14285714285714</ele><time>2026-04-18T09:27:11.669Z</time></trkpt><trkpt lat="43.6762732" lon="10.942448"><ele>112.85714285714286</ele><time>2026-04-18T09:27:17.67Z</time></trkpt><trkpt lat="43.6763067" lon="10.942367"><ele>112.57142857142857</ele><time>2026-04-18T09:27:23.669Z</time></trkpt><trkpt lat="43.6763565" lon="10.9422975"><ele>112.28571428571428</ele><time>2026-04-18T09:27:28.669Z</time></trkpt><trkpt lat="43.6764066" lon="10.9422271"><ele>112.0</ele><time>2026-04-18T09:27:34.574Z</time></trkpt><trkpt lat="43.6764604" lon="10.942158"><ele>113.42857142857143</ele><time>2026-04-18T09:27:41.614Z</time></trkpt><trkpt lat="43.6765108" lon="10.9420986"><ele>114.85714285714286</ele><time>2026-04-18T09:27:47.669Z</time></trkpt><trkpt lat="43.6765611" lon="10.9420379"><ele>116.28571428571428</ele><time>2026-04-18T09:27:52.619Z</time></trkpt><trkpt lat="43.6766114" lon="10.9419681"><ele>117.71428571428571</ele><time>2026-04-18T09:27:59.67Z</time></trkpt><trkpt lat="43.6766567" lon="10.9419058"><ele>119.14285714285714</ele><time>2026-04-18T09:28:05.669Z</time></trkpt><trkpt lat="43.6767102" lon="10.9418493"><ele>120.57142857142856</ele><time>2026-04-18T09:28:11.669Z</time></trkpt><trkpt lat="43.6767639" lon="10.9417902"><ele>121.99999999999999</ele><time>2026-04-18T09:28:17.669Z</time></trkpt><trkpt lat="43.676802" lon="10.9417165"><ele>122.28571428571428</ele><time>2026-04-18T09:28:23.669Z</time></trkpt><trkpt lat="43.6768384" lon="10.9416395"><ele>122.57142857142857</ele><time>2026-04-18T09:28:29.669Z</time></trkpt><trkpt lat="43.6768901" lon="10.9415788"><ele>122.85714285714286</ele><time>2026-04-18T09:28:36.67Z</time></trkpt><trkpt lat="43.6769358" lon="10.9415107"><ele>123.14285714285714</ele><time>2026-04-18T09:28:42.67Z</time></trkpt><trkpt lat="43.6769789" lon="10.9414391"><ele>123.42857142857144</ele><time>2026-04-18T09:28:48.67Z</time></trkpt><trkpt lat="43.6770317" lon="10.9413782"><ele>123.71428571428572</ele><time>2026-04-18T09:28:53.67Z</time></trkpt><trkpt lat="43.6771012" lon="10.9413626"><ele>124.0</ele><time>2026-04-18T09:28:59.665Z</time></trkpt><trkpt lat="43.6771656" lon="10.9413645"><ele>125.71428571428572</ele><time>2026-04-18T09:29:06.67Z</time></trkpt><trkpt lat="43.677193" lon="10.9412704"><ele>127.42857142857144</ele><time>2026-04-18T09:29:12.669Z</time></trkpt><trkpt lat="43.6772048" lon="10.9411788"><ele>129.14285714285714</ele><time>2026-04-18T09:29:17.669Z</time></trkpt><trkpt lat="43.6772307" lon="10.9410966"><ele>130.85714285714286</ele><time>2026-04-18T09:29:22.669Z</time></trkpt><trkpt lat="43.6772831" lon="10.9410292"><ele>132.57142857142856</ele><time>2026-04-18T09:29:33.669Z</time></trkpt><trkpt lat="43.6773482" lon="10.9410303"><ele>134.28571428571428</ele><time>2026-04-18T09:29:38.689Z</time></trkpt><trkpt lat="43.6774102" lon="10.9410713"><ele>136.0</ele><time>2026-04-18T09:29:45.67Z</time></trkpt><trkpt lat="43.6774667" lon="10.9411108"><ele>135.99999999999997</ele><time>2026-04-18T09:29:50.689Z</time></trkpt><trkpt lat="43.6775358" lon="10.9411231"><ele>136.0</ele><time>2026-04-18T09:29:57.669Z</time></trkpt><trkpt lat="43.6775996" lon="10.9411622"><ele>136.0</ele><time>2026-04-18T09:30:04.669Z</time></trkpt><trkpt lat="43.6776605" lon="10.9411998"><ele>136.0</ele><time>2026-04-18T09:30:10.665Z</time></trkpt><trkpt lat="43.6777181" lon="10.9412498"><ele>136.0</ele><time>2026-04-18T09:30:16.646Z</time></trkpt><trkpt lat="43.6777722" lon="10.9412966"><ele>135.99999999999997</ele><time>2026-04-18T09:30:22.67Z</time></trkpt><trkpt lat="43.6778309" lon="10.9413404"><ele>136.0</ele><time>2026-04-18T09:30:28.669Z</time></trkpt><trkpt lat="43.6778916" lon="10.9413795"><ele>136.28571428571428</ele><time>2026-04-18T09:30:35.669Z</time></trkpt><trkpt lat="43.6779583" lon="10.9414313"><ele>136.57142857142856</ele><time>2026-04-18T09:30:42.67Z</time></trkpt><trkpt lat="43.6780058" lon="10.9414895"><ele>136.85714285714286</ele><time>2026-04-18T09:30:47.669Z</time></trkpt><trkpt lat="43.678064" lon="10.9415462"><ele>137.14285714285714</ele><time>2026-04-18T09:30:53.669Z</time></trkpt><trkpt lat="43.678123" lon="10.9415962"><ele>137.42857142857144</ele><time>2026-04-18T09:30:58.701Z</time></trkpt><trkpt lat="43.6781727" lon="10.9416587"><ele>137.71428571428572</ele><time>2026-04-18T09:31:04.651Z</time></trkpt><trkpt lat="43.6782235" lon="10.9417254"><ele>138.0</ele><time>2026-04-18T09:31:10.67Z</time></trkpt><trkpt lat="43.6782707" lon="10.9417991"><ele>138.0</ele><time>2026-04-18T09:31:16.668Z</time></trkpt><trkpt lat="43.6783166" lon="10.9418664"><ele>138.0</ele><time>2026-04-18T09:31:22.67Z</time></trkpt><trkpt lat="43.6783504" lon="10.9419503"><ele>138.0</ele><time>2026-04-18T09:31:28.67Z</time></trkpt><trkpt lat="43.6783836" lon="10.9420315"><ele>138.0</ele><time>2026-04-18T09:31:34.67Z</time></trkpt><trkpt lat="43.6784372" lon="10.9421019"><ele>138.0</ele><time>2026-04-18T09:31:40.67Z</time></trkpt><trkpt lat="43.6784869" lon="10.9421634"><ele>138.0</ele><time>2026-04-18T09:31:46.67Z</time></trkpt><trkpt lat="43.6784577" lon="10.942242"><ele>138.0</ele><time>2026-04-18T09:31:55.669Z</time></trkpt><trkpt lat="43.6785049" lon="10.9423075"><ele>138.0</ele><time>2026-04-18T09:32:01.669Z</time></trkpt><trkpt lat="43.6785556" lon="10.9423764"><ele>138.0</ele><time>2026-04-18T09:32:08.663Z</time></trkpt><trkpt lat="43.6785995" lon="10.9424527"><ele>138.0</ele><time>2026-04-18T09:32:14.61Z</time></trkpt><trkpt lat="43.6786745" lon="10.942487"><ele>138.0</ele><time>2026-04-18T09:32:20.669Z</time></trkpt><trkpt lat="43.6787294" lon="10.9425416"><ele>138.0</ele><time>2026-04-18T09:32:25.669Z</time></trkpt><trkpt lat="43.6787931" lon="10.9425781"><ele>138.0</ele><time>2026-04-18T09:32:31.669Z</time></trkpt><trkpt lat="43.6788623" lon="10.9426019"><ele>138.0</ele><time>2026-04-18T09:32:38.669Z</time></trkpt><trkpt lat="43.678928" lon="10.942636"><ele>136.71428571428572</ele><time>2026-04-18T09:32:43.67Z</time></trkpt><trkpt lat="43.6789916" lon="10.9426644"><ele>135.42857142857144</ele><time>2026-04-18T09:32:48.67Z</time></trkpt><trkpt lat="43.6790642" lon="10.9426679"><ele>134.14285714285714</ele><time>2026-04-18T09:33:03.65Z</time></trkpt><trkpt lat="43.6790393" lon="10.9427743"><ele>132.85714285714286</ele><time>2026-04-18T09:33:45.67Z</time></trkpt><trkpt lat="43.6790675" lon="10.9428686"><ele>131.57142857142856</ele><time>2026-04-18T09:33:51.67Z</time></trkpt><trkpt lat="43.6791063" lon="10.942943"><ele>130.28571428571428</ele><time>2026-04-18T09:33:58.67Z</time></trkpt><trkpt lat="43.6791467" lon="10.9430331"><ele>129.0</ele><time>2026-04-18T09:34:56.67Z</time></trkpt><trkpt lat="43.679196" lon="10.9430957"><ele>128.99999999999997</ele><time>2026-04-18T09:35:01.67Z</time></trkpt><trkpt lat="43.6792589" lon="10.9431238"><ele>129.0</ele><time>2026-04-18T09:35:07.671Z</time></trkpt><trkpt lat="43.6793046" lon="10.9431959"><ele>129.0</ele><time>2026-04-18T09:35:12.669Z</time></trkpt><trkpt lat="43.6793546" lon="10.9432493"><ele>129.0</ele><time>2026-04-18T09:35:16.659Z</time></trkpt><trkpt lat="43.6794186" lon="10.9432927"><ele>129.0</ele><time>2026-04-18T09:35:21.67Z</time></trkpt><trkpt lat="43.6794763" lon="10.9433449"><ele>128.99999999999997</ele><time>2026-04-18T09:35:26.67Z</time></trkpt><trkpt lat="43.6795465" lon="10.9433763"><ele>129.0</ele><time>2026-04-18T09:35:33.669Z</time></trkpt><trkpt lat="43.6796044" lon="10.9434235"><ele>128.7142857142857</ele><time>2026-04-18T09:35:41.639Z</time></trkpt><trkpt lat="43.6796523" lon="10.9434877"><ele>128.42857142857142</ele><time>2026-04-18T09:35:57.683Z</time></trkpt><trkpt lat="43.6797107" lon="10.9435232"><ele>128.14285714285714</ele><time>2026-04-18T09:36:19.668Z</time></trkpt><trkpt lat="43.6797712" lon="10.943574"><ele>127.85714285714285</ele><time>2026-04-18T09:36:28.687Z</time></trkpt><trkpt lat="43.6798071" lon="10.9436511"><ele>127.57142857142856</ele><time>2026-04-18T09:36:47.669Z</time></trkpt><trkpt lat="43.67987" lon="10.9437103"><ele>127.28571428571429</ele><time>2026-04-18T09:37:09.683Z</time></trkpt><trkpt lat="43.6799371" lon="10.9437298"><ele>127.0</ele><time>2026-04-18T09:37:17.668Z</time></trkpt><trkpt lat="43.6800074" lon="10.9437386"><ele>127.0</ele><time>2026-04-18T09:37:23.691Z</time></trkpt><trkpt lat="43.6800794" lon="10.9437468"><ele>127.0</ele><time>2026-04-18T09:37:29.668Z</time></trkpt><trkpt lat="43.6801436" lon="10.9437495"><ele>127.0</ele><time>2026-04-18T09:37:34.668Z</time></trkpt><trkpt lat="43.6801749" lon="10.9436727"><ele>127.0</ele><time>2026-04-18T09:37:41.669Z</time></trkpt><trkpt lat="43.6802422" lon="10.9436986"><ele>127.0</ele><time>2026-04-18T09:37:47.669Z</time></trkpt><trkpt lat="43.6803003" lon="10.9437324"><ele>127.0</ele><time>2026-04-18T09:37:52.683Z</time></trkpt><trkpt lat="43.6803652" lon="10.9437485"><ele>127.0</ele><time>2026-04-18T09:37:59.591Z</time></trkpt><trkpt lat="43.6804187" lon="10.9438037"><ele>117.0</ele><time>2026-04-18T09:38:05.668Z</time></trkpt><trkpt lat="43.6804222" lon="10.9438979"><ele>117.0</ele><time>2026-04-18T09:38:11.704Z</time></trkpt><trkpt lat="43.6804326" lon="10.9439981"><ele>117.0</ele><time>2026-04-18T09:38:17.677Z</time></trkpt><trkpt lat="43.6804695" lon="10.9440806"><ele>117.0</ele><time>2026-04-18T09:38:22.633Z</time></trkpt><trkpt lat="43.6805163" lon="10.9441638"><ele>117.0</ele><time>2026-04-18T09:38:28.668Z</time></trkpt><trkpt lat="43.6805651" lon="10.944227"><ele>108.0</ele><time>2026-04-18T09:38:34.668Z</time></trkpt><trkpt lat="43.680629" lon="10.9442722"><ele>108.0</ele><time>2026-04-18T09:38:40.669Z</time></trkpt></trkseg></trk></gpx>